<?xml version="1.0" encoding="UTF-8"?>
<gpx version="1.1" creator="2bulu-scraper" xmlns="http://www.topografix.com/GPX/1/1">
  <metadata><name>2026-07-14 10:23:01</name><desc>source: 2bulu.com trackId=87082276; exported 2026-09-01T18:40:31.222Z</desc>
    <bounds minlat="27.800506" minlon="104.339085" maxlat="27.816781" maxlon="104.357839"/>
    <link href="https://www.2bulu.com/track/t-%252FzDSESgNsUjp%252FR2KBg5Tzw%253D%253D.htm"><text>2bulu 源页面</text></link>
  </metadata>
  <wpt lat="27.816675704330873" lon="104.34037016109757"><ele>0</ele><name></name></wpt>
  <wpt lat="27.816658311300806" lon="104.34037625269417"><ele>0</ele><name></name></wpt>
  <wpt lat="27.8165903841153" lon="104.34039470824729"><ele>0</ele><name></name></wpt>
  <wpt lat="27.81658377336071" lon="104.34040022359365"><ele>0</ele><name></name></wpt>
  <wpt lat="27.81138933744998" lon="104.34363312388298"><ele>0</ele><name></name></wpt>
  <wpt lat="27.811405482044552" lon="104.34363758698686"><ele>0</ele><name></name></wpt>
  <wpt lat="27.811388553743512" lon="104.34364781649063"><ele>0</ele><name></name></wpt>
  <wpt lat="27.811395351809022" lon="104.34367869995975"><ele>0</ele><name></name></wpt>
  <wpt lat="27.81139780209037" lon="104.3436852648102"><ele>0</ele><name></name></wpt>
  <wpt lat="27.805616982780048" lon="104.34114197978664"><ele>0</ele><name></name></wpt>
  <wpt lat="27.80555272746176" lon="104.34116592068223"><ele>0</ele><name></name></wpt>
  <wpt lat="27.805517642365352" lon="104.34116363087074"><ele>0</ele><name></name></wpt>
  <wpt lat="27.8055138685693" lon="104.34116231685006"><ele>0</ele><name></name></wpt>
  <wpt lat="27.80551080092443" lon="104.34115771119428"><ele>0</ele><name></name></wpt>
  <wpt lat="27.805507760790768" lon="104.34115650292875"><ele>0</ele><name></name></wpt>
  <wpt lat="27.80262817198541" lon="104.34424956288579"><ele>0</ele><name></name></wpt>
  <wpt lat="27.802626243456185" lon="104.3442524377819"><ele>0</ele><name></name></wpt>
  <wpt lat="27.802649121959615" lon="104.3442897827602"><ele>0</ele><name></name></wpt>
  <wpt lat="27.802649933636513" lon="104.34430403073512"><ele>0</ele><name></name></wpt>
  <wpt lat="27.80921074887027" lon="104.35625502965644"><ele>0</ele><name></name></wpt>
  <wpt lat="27.80924299677792" lon="104.35622859538891"><ele>0</ele><name></name></wpt>
  <wpt lat="27.809252327825895" lon="104.3562268966884"><ele>0</ele><name></name></wpt>
  <wpt lat="27.80931244848763" lon="104.35622672508357"><ele>0</ele><name></name></wpt>
  <wpt lat="27.811232294228756" lon="104.35758319326145"><ele>0</ele><name></name></wpt>
  <wpt lat="27.811224682574863" lon="104.35760592758577"><ele>0</ele><name></name></wpt>
  <wpt lat="27.811223869467725" lon="104.35760952916134"><ele>0</ele><name></name></wpt>
  <wpt lat="27.81122554136594" lon="104.3576154161334"><ele>0</ele><name></name></wpt>
  <trk><name>2026-07-14 10:23:01</name>
      <trkseg>
        <trkpt lat="27.805233" lon="104.341767"><ele>1899.5028</ele><time>2026-07-13T18:23:02.000Z</time></trkpt>
        <trkpt lat="27.805235" lon="104.341684"><ele>1898.8823</ele><time>2026-07-13T18:23:04.000Z</time></trkpt>
        <trkpt lat="27.805243" lon="104.341602"><ele>1898.8042</ele><time>2026-07-13T18:23:06.000Z</time></trkpt>
        <trkpt lat="27.805257" lon="104.341526"><ele>1898.5978</ele><time>2026-07-13T18:23:08.000Z</time></trkpt>
        <trkpt lat="27.805266" lon="104.341449"><ele>1898.1096</ele><time>2026-07-13T18:23:10.000Z</time></trkpt>
        <trkpt lat="27.80526" lon="104.341369"><ele>1897.2301</ele><time>2026-07-13T18:23:12.000Z</time></trkpt>
        <trkpt lat="27.80525" lon="104.341288"><ele>1896.2125</ele><time>2026-07-13T18:23:14.000Z</time></trkpt>
        <trkpt lat="27.805235" lon="104.341203"><ele>1895.4056</ele><time>2026-07-13T18:23:16.000Z</time></trkpt>
        <trkpt lat="27.805214" lon="104.341119"><ele>1894.8951</ele><time>2026-07-13T18:23:18.000Z</time></trkpt>
        <trkpt lat="27.805189" lon="104.341035"><ele>1895.3019</ele><time>2026-07-13T18:23:20.000Z</time></trkpt>
        <trkpt lat="27.80516" lon="104.340956"><ele>1895.8901</ele><time>2026-07-13T18:23:22.000Z</time></trkpt>
        <trkpt lat="27.805148" lon="104.340881"><ele>1896.2054</ele><time>2026-07-13T18:23:24.000Z</time></trkpt>
        <trkpt lat="27.805155" lon="104.340798"><ele>1896.4824</ele><time>2026-07-13T18:23:26.000Z</time></trkpt>
        <trkpt lat="27.805183" lon="104.340725"><ele>1896.855</ele><time>2026-07-13T18:23:28.000Z</time></trkpt>
        <trkpt lat="27.805224" lon="104.340656"><ele>1897.1863</ele><time>2026-07-13T18:23:30.000Z</time></trkpt>
        <trkpt lat="27.805273" lon="104.340597"><ele>1897.3986</ele><time>2026-07-13T18:23:32.000Z</time></trkpt>
        <trkpt lat="27.805315" lon="104.340547"><ele>1897.4094</ele><time>2026-07-13T18:23:34.000Z</time></trkpt>
        <trkpt lat="27.805363" lon="104.340502"><ele>1897.6475</ele><time>2026-07-13T18:23:36.000Z</time></trkpt>
        <trkpt lat="27.805418" lon="104.340464"><ele>1897.5697</ele><time>2026-07-13T18:23:38.000Z</time></trkpt>
        <trkpt lat="27.805468" lon="104.340433"><ele>1897.535</ele><time>2026-07-13T18:23:40.000Z</time></trkpt>
        <trkpt lat="27.805526" lon="104.340398"><ele>1897.1436</ele><time>2026-07-13T18:23:42.000Z</time></trkpt>
        <trkpt lat="27.805593" lon="104.340364"><ele>1896.8074</ele><time>2026-07-13T18:23:44.000Z</time></trkpt>
        <trkpt lat="27.805653" lon="104.340328"><ele>1896.9465</ele><time>2026-07-13T18:23:46.000Z</time></trkpt>
        <trkpt lat="27.805707" lon="104.340299"><ele>1897.118</ele><time>2026-07-13T18:23:48.000Z</time></trkpt>
        <trkpt lat="27.805769" lon="104.340271"><ele>1897.0697</ele><time>2026-07-13T18:23:50.000Z</time></trkpt>
        <trkpt lat="27.805838" lon="104.340245"><ele>1896.8568</ele><time>2026-07-13T18:23:52.000Z</time></trkpt>
        <trkpt lat="27.805908" lon="104.340221"><ele>1896.6505</ele><time>2026-07-13T18:23:54.000Z</time></trkpt>
        <trkpt lat="27.805975" lon="104.340213"><ele>1896.4407</ele><time>2026-07-13T18:23:56.000Z</time></trkpt>
        <trkpt lat="27.806054" lon="104.340221"><ele>1896.3755</ele><time>2026-07-13T18:23:58.000Z</time></trkpt>
        <trkpt lat="27.806137" lon="104.34024"><ele>1896.2415</ele><time>2026-07-13T18:24:00.000Z</time></trkpt>
        <trkpt lat="27.806214" lon="104.340256"><ele>1896.0991</ele><time>2026-07-13T18:24:02.000Z</time></trkpt>
        <trkpt lat="27.806286" lon="104.340264"><ele>1895.8171</ele><time>2026-07-13T18:24:04.000Z</time></trkpt>
        <trkpt lat="27.806346" lon="104.340276"><ele>1895.604</ele><time>2026-07-13T18:24:06.000Z</time></trkpt>
        <trkpt lat="27.806412" lon="104.340279"><ele>1895.6375</ele><time>2026-07-13T18:24:08.000Z</time></trkpt>
        <trkpt lat="27.806483" lon="104.340276"><ele>1895.6196</ele><time>2026-07-13T18:24:10.000Z</time></trkpt>
        <trkpt lat="27.806552" lon="104.340266"><ele>1895.5009</ele><time>2026-07-13T18:24:12.000Z</time></trkpt>
        <trkpt lat="27.806624" lon="104.340251"><ele>1895.4587</ele><time>2026-07-13T18:24:14.000Z</time></trkpt>
        <trkpt lat="27.806702" lon="104.340232"><ele>1895.3689</ele><time>2026-07-13T18:24:16.000Z</time></trkpt>
        <trkpt lat="27.806781" lon="104.340204"><ele>1895.2074</ele><time>2026-07-13T18:24:18.000Z</time></trkpt>
        <trkpt lat="27.806864" lon="104.340181"><ele>1895.1206</ele><time>2026-07-13T18:24:20.000Z</time></trkpt>
        <trkpt lat="27.806941" lon="104.340175"><ele>1894.9873</ele><time>2026-07-13T18:24:22.000Z</time></trkpt>
        <trkpt lat="27.807001" lon="104.340164"><ele>1894.7728</ele><time>2026-07-13T18:24:24.000Z</time></trkpt>
        <trkpt lat="27.807045" lon="104.340145"><ele>1894.4928</ele><time>2026-07-13T18:24:26.000Z</time></trkpt>
        <trkpt lat="27.807094" lon="104.340111"><ele>1894.3469</ele><time>2026-07-13T18:24:28.000Z</time></trkpt>
        <trkpt lat="27.807152" lon="104.340096"><ele>1894.0508</ele><time>2026-07-13T18:24:30.000Z</time></trkpt>
        <trkpt lat="27.807195" lon="104.340122"><ele>1896.8123</ele><time>2026-07-13T18:24:32.000Z</time></trkpt>
        <trkpt lat="27.807232" lon="104.340169"><ele>1896.7417</ele><time>2026-07-13T18:24:34.000Z</time></trkpt>
        <trkpt lat="27.807284" lon="104.340195"><ele>1896.8544</ele><time>2026-07-13T18:24:36.000Z</time></trkpt>
        <trkpt lat="27.807343" lon="104.340196"><ele>1896.9154</ele><time>2026-07-13T18:24:38.000Z</time></trkpt>
        <trkpt lat="27.80741" lon="104.340183"><ele>1896.7928</ele><time>2026-07-13T18:24:40.000Z</time></trkpt>
        <trkpt lat="27.807483" lon="104.340149"><ele>1896.6405</ele><time>2026-07-13T18:24:42.000Z</time></trkpt>
        <trkpt lat="27.807554" lon="104.340115"><ele>1896.5245</ele><time>2026-07-13T18:24:44.000Z</time></trkpt>
        <trkpt lat="27.807611" lon="104.340078"><ele>1896.585</ele><time>2026-07-13T18:24:46.000Z</time></trkpt>
        <trkpt lat="27.807664" lon="104.340041"><ele>1896.5591</ele><time>2026-07-13T18:24:48.000Z</time></trkpt>
        <trkpt lat="27.807713" lon="104.340001"><ele>1896.2797</ele><time>2026-07-13T18:24:50.000Z</time></trkpt>
        <trkpt lat="27.807759" lon="104.33995"><ele>1896.1113</ele><time>2026-07-13T18:24:52.000Z</time></trkpt>
        <trkpt lat="27.807822" lon="104.33991"><ele>1895.7175</ele><time>2026-07-13T18:24:54.000Z</time></trkpt>
        <trkpt lat="27.807896" lon="104.339886"><ele>1895.4567</ele><time>2026-07-13T18:24:56.000Z</time></trkpt>
        <trkpt lat="27.807962" lon="104.339875"><ele>1895.0427</ele><time>2026-07-13T18:24:58.000Z</time></trkpt>
        <trkpt lat="27.808029" lon="104.339865"><ele>1894.8109</ele><time>2026-07-13T18:25:00.000Z</time></trkpt>
        <trkpt lat="27.808091" lon="104.33985"><ele>1894.744</ele><time>2026-07-13T18:25:02.000Z</time></trkpt>
        <trkpt lat="27.808151" lon="104.339829"><ele>1894.8208</ele><time>2026-07-13T18:25:04.000Z</time></trkpt>
        <trkpt lat="27.808217" lon="104.339803"><ele>1894.652</ele><time>2026-07-13T18:25:06.000Z</time></trkpt>
        <trkpt lat="27.808278" lon="104.339775"><ele>1894.2649</ele><time>2026-07-13T18:25:08.000Z</time></trkpt>
        <trkpt lat="27.808326" lon="104.339738"><ele>1894.0449</ele><time>2026-07-13T18:25:10.000Z</time></trkpt>
        <trkpt lat="27.808367" lon="104.339682"><ele>1893.4711</ele><time>2026-07-13T18:25:12.000Z</time></trkpt>
        <trkpt lat="27.808388" lon="104.339609"><ele>1892.8569</ele><time>2026-07-13T18:25:14.000Z</time></trkpt>
        <trkpt lat="27.808404" lon="104.339536"><ele>1892.6328</ele><time>2026-07-13T18:25:16.000Z</time></trkpt>
        <trkpt lat="27.808417" lon="104.339463"><ele>1892.2876</ele><time>2026-07-13T18:25:18.000Z</time></trkpt>
        <trkpt lat="27.808437" lon="104.339398"><ele>1891.7263</ele><time>2026-07-13T18:25:20.000Z</time></trkpt>
        <trkpt lat="27.808465" lon="104.339336"><ele>1891.2526</ele><time>2026-07-13T18:25:22.000Z</time></trkpt>
        <trkpt lat="27.8085" lon="104.339274"><ele>1890.694</ele><time>2026-07-13T18:25:24.000Z</time></trkpt>
        <trkpt lat="27.808547" lon="104.339228"><ele>1890.3835</ele><time>2026-07-13T18:25:26.000Z</time></trkpt>
        <trkpt lat="27.808594" lon="104.339187"><ele>1890.2148</ele><time>2026-07-13T18:25:28.000Z</time></trkpt>
        <trkpt lat="27.80865" lon="104.339154"><ele>1889.9174</ele><time>2026-07-13T18:25:30.000Z</time></trkpt>
        <trkpt lat="27.808709" lon="104.339116"><ele>1889.4858</ele><time>2026-07-13T18:25:32.000Z</time></trkpt>
        <trkpt lat="27.808762" lon="104.339085"><ele>1889.2777</ele><time>2026-07-13T18:25:34.000Z</time></trkpt>
        <trkpt lat="27.808821" lon="104.33909"><ele>1889.0214</ele><time>2026-07-13T18:25:36.000Z</time></trkpt>
        <trkpt lat="27.80888" lon="104.33913"><ele>1888.5057</ele><time>2026-07-13T18:25:38.000Z</time></trkpt>
        <trkpt lat="27.80894" lon="104.339193"><ele>1887.9293</ele><time>2026-07-13T18:25:40.000Z</time></trkpt>
        <trkpt lat="27.809007" lon="104.339255"><ele>1887.6805</ele><time>2026-07-13T18:25:42.000Z</time></trkpt>
        <trkpt lat="27.809071" lon="104.339301"><ele>1887.2418</ele><time>2026-07-13T18:25:44.000Z</time></trkpt>
        <trkpt lat="27.809128" lon="104.339333"><ele>1886.9319</ele><time>2026-07-13T18:25:46.000Z</time></trkpt>
        <trkpt lat="27.809187" lon="104.339354"><ele>1886.6272</ele><time>2026-07-13T18:25:48.000Z</time></trkpt>
        <trkpt lat="27.809244" lon="104.339371"><ele>1886.0415</ele><time>2026-07-13T18:25:50.000Z</time></trkpt>
        <trkpt lat="27.80931" lon="104.339381"><ele>1885.7026</ele><time>2026-07-13T18:25:52.000Z</time></trkpt>
        <trkpt lat="27.809376" lon="104.339381"><ele>1885.3501</ele><time>2026-07-13T18:25:54.000Z</time></trkpt>
        <trkpt lat="27.809436" lon="104.339369"><ele>1884.9166</ele><time>2026-07-13T18:25:56.000Z</time></trkpt>
        <trkpt lat="27.809496" lon="104.339342"><ele>1884.364</ele><time>2026-07-13T18:25:58.000Z</time></trkpt>
        <trkpt lat="27.809556" lon="104.339322"><ele>1884.198</ele><time>2026-07-13T18:26:00.000Z</time></trkpt>
        <trkpt lat="27.809602" lon="104.339289"><ele>1883.8597</ele><time>2026-07-13T18:26:02.000Z</time></trkpt>
        <trkpt lat="27.809652" lon="104.339257"><ele>1883.492</ele><time>2026-07-13T18:26:04.000Z</time></trkpt>
        <trkpt lat="27.809704" lon="104.339223"><ele>1883.1752</ele><time>2026-07-13T18:26:06.000Z</time></trkpt>
        <trkpt lat="27.809764" lon="104.339193"><ele>1882.8901</ele><time>2026-07-13T18:26:08.000Z</time></trkpt>
        <trkpt lat="27.809817" lon="104.339165"><ele>1882.691</ele><time>2026-07-13T18:26:10.000Z</time></trkpt>
        <trkpt lat="27.809867" lon="104.339134"><ele>1882.5374</ele><time>2026-07-13T18:26:12.000Z</time></trkpt>
        <trkpt lat="27.809936" lon="104.339117"><ele>1882.586</ele><time>2026-07-13T18:26:14.000Z</time></trkpt>
        <trkpt lat="27.810041" lon="104.339113"><ele>1882.6283</ele><time>2026-07-13T18:26:18.000Z</time></trkpt>
        <trkpt lat="27.810108" lon="104.339135"><ele>1882.5507</ele><time>2026-07-13T18:26:20.000Z</time></trkpt>
        <trkpt lat="27.810165" lon="104.339172"><ele>1882.7229</ele><time>2026-07-13T18:26:22.000Z</time></trkpt>
        <trkpt lat="27.810239" lon="104.339243"><ele>1882.6901</ele><time>2026-07-13T18:26:24.000Z</time></trkpt>
        <trkpt lat="27.81027" lon="104.339281"><ele>1882.445</ele><time>2026-07-13T18:26:25.000Z</time></trkpt>
        <trkpt lat="27.810321" lon="104.339343"><ele>1882.0447</ele><time>2026-07-13T18:26:27.000Z</time></trkpt>
        <trkpt lat="27.81035" lon="104.339382"><ele>1881.7349</ele><time>2026-07-13T18:26:28.000Z</time></trkpt>
        <trkpt lat="27.810393" lon="104.339456"><ele>1881.4113</ele><time>2026-07-13T18:26:30.000Z</time></trkpt>
        <trkpt lat="27.810427" lon="104.339519"><ele>1881.3934</ele><time>2026-07-13T18:26:32.000Z</time></trkpt>
        <trkpt lat="27.81045" lon="104.33957"><ele>1881.3563</ele><time>2026-07-13T18:26:33.000Z</time></trkpt>
        <trkpt lat="27.810486" lon="104.339652"><ele>1880.8263</ele><time>2026-07-13T18:26:35.000Z</time></trkpt>
        <trkpt lat="27.810516" lon="104.339719"><ele>1880.3915</ele><time>2026-07-13T18:26:37.000Z</time></trkpt>
        <trkpt lat="27.810546" lon="104.339777"><ele>1880.0544</ele><time>2026-07-13T18:26:39.000Z</time></trkpt>
        <trkpt lat="27.810584" lon="104.339829"><ele>1879.8727</ele><time>2026-07-13T18:26:41.000Z</time></trkpt>
        <trkpt lat="27.810637" lon="104.339867"><ele>1879.8092</ele><time>2026-07-13T18:26:43.000Z</time></trkpt>
        <trkpt lat="27.810698" lon="104.339875"><ele>1879.5007</ele><time>2026-07-13T18:26:45.000Z</time></trkpt>
        <trkpt lat="27.810752" lon="104.339865"><ele>1879.1385</ele><time>2026-07-13T18:26:47.000Z</time></trkpt>
        <trkpt lat="27.810816" lon="104.339841"><ele>1879.0436</ele><time>2026-07-13T18:26:49.000Z</time></trkpt>
        <trkpt lat="27.810893" lon="104.339811"><ele>1878.9211</ele><time>2026-07-13T18:26:51.000Z</time></trkpt>
        <trkpt lat="27.810952" lon="104.339795"><ele>1878.7709</ele><time>2026-07-13T18:26:53.000Z</time></trkpt>
        <trkpt lat="27.811028" lon="104.339802"><ele>1878.6089</ele><time>2026-07-13T18:26:55.000Z</time></trkpt>
        <trkpt lat="27.81109" lon="104.339836"><ele>1878.2988</ele><time>2026-07-13T18:26:57.000Z</time></trkpt>
        <trkpt lat="27.811152" lon="104.339908"><ele>1877.9377</ele><time>2026-07-13T18:26:59.000Z</time></trkpt>
        <trkpt lat="27.811182" lon="104.339952"><ele>1877.5217</ele><time>2026-07-13T18:27:00.000Z</time></trkpt>
        <trkpt lat="27.811207" lon="104.339999"><ele>1877.0507</ele><time>2026-07-13T18:27:01.000Z</time></trkpt>
        <trkpt lat="27.81125" lon="104.340081"><ele>1876.6461</ele><time>2026-07-13T18:27:03.000Z</time></trkpt>
        <trkpt lat="27.811288" lon="104.340158"><ele>1876.398</ele><time>2026-07-13T18:27:05.000Z</time></trkpt>
        <trkpt lat="27.811325" lon="104.340231"><ele>1875.9237</ele><time>2026-07-13T18:27:07.000Z</time></trkpt>
        <trkpt lat="27.811355" lon="104.3403"><ele>1875.149</ele><time>2026-07-13T18:27:09.000Z</time></trkpt>
        <trkpt lat="27.811381" lon="104.340364"><ele>1874.4956</ele><time>2026-07-13T18:27:11.000Z</time></trkpt>
        <trkpt lat="27.811411" lon="104.340419"><ele>1873.9198</ele><time>2026-07-13T18:27:13.000Z</time></trkpt>
        <trkpt lat="27.811444" lon="104.340475"><ele>1873.5558</ele><time>2026-07-13T18:27:15.000Z</time></trkpt>
        <trkpt lat="27.811476" lon="104.340529"><ele>1873.1187</ele><time>2026-07-13T18:27:17.000Z</time></trkpt>
        <trkpt lat="27.811506" lon="104.340583"><ele>1872.6509</ele><time>2026-07-13T18:27:19.000Z</time></trkpt>
        <trkpt lat="27.811537" lon="104.340633"><ele>1872.4026</ele><time>2026-07-13T18:27:21.000Z</time></trkpt>
        <trkpt lat="27.811567" lon="104.340682"><ele>1871.9435</ele><time>2026-07-13T18:27:23.000Z</time></trkpt>
        <trkpt lat="27.8116" lon="104.34074"><ele>1871.4314</ele><time>2026-07-13T18:27:25.000Z</time></trkpt>
        <trkpt lat="27.811637" lon="104.340811"><ele>1871.4186</ele><time>2026-07-13T18:27:27.000Z</time></trkpt>
        <trkpt lat="27.811682" lon="104.340883"><ele>1871.091</ele><time>2026-07-13T18:27:29.000Z</time></trkpt>
        <trkpt lat="27.811723" lon="104.340953"><ele>1870.7285</ele><time>2026-07-13T18:27:31.000Z</time></trkpt>
        <trkpt lat="27.811763" lon="104.341032"><ele>1870.1874</ele><time>2026-07-13T18:27:33.000Z</time></trkpt>
        <trkpt lat="27.811808" lon="104.341107"><ele>1869.8864</ele><time>2026-07-13T18:27:35.000Z</time></trkpt>
        <trkpt lat="27.811856" lon="104.341185"><ele>1869.6772</ele><time>2026-07-13T18:27:37.000Z</time></trkpt>
        <trkpt lat="27.811907" lon="104.341257"><ele>1869.645</ele><time>2026-07-13T18:27:39.000Z</time></trkpt>
        <trkpt lat="27.811965" lon="104.341313"><ele>1869.3672</ele><time>2026-07-13T18:27:41.000Z</time></trkpt>
        <trkpt lat="27.812027" lon="104.341347"><ele>1869.1681</ele><time>2026-07-13T18:27:43.000Z</time></trkpt>
        <trkpt lat="27.812088" lon="104.34137"><ele>1868.9393</ele><time>2026-07-13T18:27:45.000Z</time></trkpt>
        <trkpt lat="27.812156" lon="104.341382"><ele>1868.3932</ele><time>2026-07-13T18:27:47.000Z</time></trkpt>
        <trkpt lat="27.812234" lon="104.341405"><ele>1868.0106</ele><time>2026-07-13T18:27:49.000Z</time></trkpt>
        <trkpt lat="27.812311" lon="104.34144"><ele>1867.3702</ele><time>2026-07-13T18:27:51.000Z</time></trkpt>
        <trkpt lat="27.81238" lon="104.34146"><ele>1866.787</ele><time>2026-07-13T18:27:53.000Z</time></trkpt>
        <trkpt lat="27.812438" lon="104.341462"><ele>1866.2369</ele><time>2026-07-13T18:28:03.000Z</time></trkpt>
        <trkpt lat="27.812495" lon="104.341472"><ele>1866.1509</ele><time>2026-07-13T18:28:06.000Z</time></trkpt>
        <trkpt lat="27.812544" lon="104.341483"><ele>1865.9703</ele><time>2026-07-13T18:28:08.000Z</time></trkpt>
        <trkpt lat="27.812608" lon="104.341485"><ele>1865.9298</ele><time>2026-07-13T18:28:10.000Z</time></trkpt>
        <trkpt lat="27.812683" lon="104.341472"><ele>1865.8608</ele><time>2026-07-13T18:28:12.000Z</time></trkpt>
        <trkpt lat="27.812755" lon="104.341445"><ele>1865.6616</ele><time>2026-07-13T18:28:14.000Z</time></trkpt>
        <trkpt lat="27.812817" lon="104.341403"><ele>1865.4817</ele><time>2026-07-13T18:28:16.000Z</time></trkpt>
        <trkpt lat="27.812867" lon="104.341358"><ele>1865.1857</ele><time>2026-07-13T18:28:18.000Z</time></trkpt>
        <trkpt lat="27.812902" lon="104.34131"><ele>1865.1709</ele><time>2026-07-13T18:28:20.000Z</time></trkpt>
        <trkpt lat="27.812945" lon="104.341261"><ele>1865.1888</ele><time>2026-07-13T18:28:22.000Z</time></trkpt>
        <trkpt lat="27.812994" lon="104.341201"><ele>1865.0448</ele><time>2026-07-13T18:28:24.000Z</time></trkpt>
        <trkpt lat="27.813048" lon="104.341141"><ele>1865.1442</ele><time>2026-07-13T18:28:26.000Z</time></trkpt>
        <trkpt lat="27.813104" lon="104.341086"><ele>1865.2556</ele><time>2026-07-13T18:28:28.000Z</time></trkpt>
        <trkpt lat="27.813163" lon="104.341044"><ele>1865.3405</ele><time>2026-07-13T18:28:30.000Z</time></trkpt>
        <trkpt lat="27.813222" lon="104.341013"><ele>1865.4918</ele><time>2026-07-13T18:28:32.000Z</time></trkpt>
        <trkpt lat="27.813282" lon="104.340995"><ele>1865.6627</ele><time>2026-07-13T18:28:34.000Z</time></trkpt>
        <trkpt lat="27.813347" lon="104.340981"><ele>1865.8452</ele><time>2026-07-13T18:28:36.000Z</time></trkpt>
        <trkpt lat="27.813418" lon="104.340976"><ele>1866.0416</ele><time>2026-07-13T18:28:38.000Z</time></trkpt>
        <trkpt lat="27.813492" lon="104.340972"><ele>1866.3145</ele><time>2026-07-13T18:28:40.000Z</time></trkpt>
        <trkpt lat="27.813561" lon="104.340969"><ele>1866.3473</ele><time>2026-07-13T18:28:42.000Z</time></trkpt>
        <trkpt lat="27.813612" lon="104.34096"><ele>1866.3573</ele><time>2026-07-13T18:28:44.000Z</time></trkpt>
        <trkpt lat="27.813664" lon="104.340947"><ele>1866.362</ele><time>2026-07-13T18:28:46.000Z</time></trkpt>
        <trkpt lat="27.813736" lon="104.340949"><ele>1866.5497</ele><time>2026-07-13T18:28:48.000Z</time></trkpt>
        <trkpt lat="27.813809" lon="104.340966"><ele>1866.6166</ele><time>2026-07-13T18:28:50.000Z</time></trkpt>
        <trkpt lat="27.813873" lon="104.340959"><ele>1866.6011</ele><time>2026-07-13T18:28:52.000Z</time></trkpt>
        <trkpt lat="27.813935" lon="104.340924"><ele>1866.7191</ele><time>2026-07-13T18:28:54.000Z</time></trkpt>
        <trkpt lat="27.813995" lon="104.340874"><ele>1866.8206</ele><time>2026-07-13T18:28:56.000Z</time></trkpt>
        <trkpt lat="27.814052" lon="104.340821"><ele>1866.9147</ele><time>2026-07-13T18:28:58.000Z</time></trkpt>
        <trkpt lat="27.814116" lon="104.340764"><ele>1867.0758</ele><time>2026-07-13T18:29:01.000Z</time></trkpt>
        <trkpt lat="27.814157" lon="104.340725"><ele>1867.1062</ele><time>2026-07-13T18:29:02.000Z</time></trkpt>
        <trkpt lat="27.814191" lon="104.340688"><ele>1867.0977</ele><time>2026-07-13T18:29:03.000Z</time></trkpt>
        <trkpt lat="27.81425" lon="104.340631"><ele>1867.3276</ele><time>2026-07-13T18:29:05.000Z</time></trkpt>
        <trkpt lat="27.814313" lon="104.340571"><ele>1867.5974</ele><time>2026-07-13T18:29:07.000Z</time></trkpt>
        <trkpt lat="27.814368" lon="104.340511"><ele>1867.8226</ele><time>2026-07-13T18:29:09.000Z</time></trkpt>
        <trkpt lat="27.814409" lon="104.340443"><ele>1867.8438</ele><time>2026-07-13T18:29:11.000Z</time></trkpt>
        <trkpt lat="27.814444" lon="104.340369"><ele>1868.0118</ele><time>2026-07-13T18:29:13.000Z</time></trkpt>
        <trkpt lat="27.814474" lon="104.34029"><ele>1868.3573</ele><time>2026-07-13T18:29:15.000Z</time></trkpt>
        <trkpt lat="27.814502" lon="104.340211"><ele>1868.5312</ele><time>2026-07-13T18:29:17.000Z</time></trkpt>
        <trkpt lat="27.814529" lon="104.34013"><ele>1868.8417</ele><time>2026-07-13T18:29:19.000Z</time></trkpt>
        <trkpt lat="27.814557" lon="104.340058"><ele>1869.1365</ele><time>2026-07-13T18:29:21.000Z</time></trkpt>
        <trkpt lat="27.814587" lon="104.339995"><ele>1869.1003</ele><time>2026-07-13T18:29:23.000Z</time></trkpt>
        <trkpt lat="27.814624" lon="104.339935"><ele>1869.2897</ele><time>2026-07-13T18:29:25.000Z</time></trkpt>
        <trkpt lat="27.814673" lon="104.33987"><ele>1869.5931</ele><time>2026-07-13T18:29:27.000Z</time></trkpt>
        <trkpt lat="27.81472" lon="104.339804"><ele>1869.7681</ele><time>2026-07-13T18:29:29.000Z</time></trkpt>
        <trkpt lat="27.814777" lon="104.339757"><ele>1869.8744</ele><time>2026-07-13T18:29:31.000Z</time></trkpt>
        <trkpt lat="27.814848" lon="104.339742"><ele>1869.9395</ele><time>2026-07-13T18:29:33.000Z</time></trkpt>
        <trkpt lat="27.814926" lon="104.33976"><ele>1870.1544</ele><time>2026-07-13T18:29:35.000Z</time></trkpt>
        <trkpt lat="27.814998" lon="104.339801"><ele>1870.4325</ele><time>2026-07-13T18:29:37.000Z</time></trkpt>
        <trkpt lat="27.815067" lon="104.339822"><ele>1870.7845</ele><time>2026-07-13T18:29:39.000Z</time></trkpt>
        <trkpt lat="27.815124" lon="104.339836"><ele>1871.1187</ele><time>2026-07-13T18:29:41.000Z</time></trkpt>
        <trkpt lat="27.815169" lon="104.339832"><ele>1871.7743</ele><time>2026-07-13T18:29:59.000Z</time></trkpt>
        <trkpt lat="27.815216" lon="104.339839"><ele>1871.8579</ele><time>2026-07-13T18:30:07.000Z</time></trkpt>
        <trkpt lat="27.815263" lon="104.339849"><ele>1871.8419</ele><time>2026-07-13T18:30:14.000Z</time></trkpt>
        <trkpt lat="27.815315" lon="104.33986"><ele>1871.6686</ele><time>2026-07-13T18:30:20.000Z</time></trkpt>
        <trkpt lat="27.815361" lon="104.339871"><ele>1871.96</ele><time>2026-07-13T18:30:31.000Z</time></trkpt>
        <trkpt lat="27.815399" lon="104.33991"><ele>1871.748</ele><time>2026-07-13T18:30:38.000Z</time></trkpt>
        <trkpt lat="27.815439" lon="104.33994"><ele>1871.7992</ele><time>2026-07-13T18:30:55.000Z</time></trkpt>
        <trkpt lat="27.815468" lon="104.33999"><ele>1871.9806</ele><time>2026-07-13T18:31:01.000Z</time></trkpt>
        <trkpt lat="27.815492" lon="104.340039"><ele>1872.1802</ele><time>2026-07-13T18:31:06.000Z</time></trkpt>
        <trkpt lat="27.815523" lon="104.34009"><ele>1872.3683</ele><time>2026-07-13T18:31:12.000Z</time></trkpt>
        <trkpt lat="27.815548" lon="104.340144"><ele>1872.6412</ele><time>2026-07-13T18:31:17.000Z</time></trkpt>
        <trkpt lat="27.815579" lon="104.340195"><ele>1872.8239</ele><time>2026-07-13T18:31:22.000Z</time></trkpt>
        <trkpt lat="27.815608" lon="104.340238"><ele>1872.7009</ele><time>2026-07-13T18:31:28.000Z</time></trkpt>
        <trkpt lat="27.815637" lon="104.340285"><ele>1872.498</ele><time>2026-07-13T18:31:33.000Z</time></trkpt>
        <trkpt lat="27.815674" lon="104.340329"><ele>1872.5135</ele><time>2026-07-13T18:31:38.000Z</time></trkpt>
        <trkpt lat="27.815714" lon="104.340354"><ele>1873.0131</ele><time>2026-07-13T18:31:43.000Z</time></trkpt>
        <trkpt lat="27.815762" lon="104.340378"><ele>1873.2242</ele><time>2026-07-13T18:31:49.000Z</time></trkpt>
        <trkpt lat="27.815806" lon="104.3404"><ele>1873.5541</ele><time>2026-07-13T18:31:54.000Z</time></trkpt>
        <trkpt lat="27.815852" lon="104.340419"><ele>1873.9734</ele><time>2026-07-13T18:32:00.000Z</time></trkpt>
        <trkpt lat="27.815903" lon="104.340425"><ele>1874.0995</ele><time>2026-07-13T18:32:05.000Z</time></trkpt>
        <trkpt lat="27.815956" lon="104.340432"><ele>1874.336</ele><time>2026-07-13T18:32:10.000Z</time></trkpt>
        <trkpt lat="27.81601" lon="104.340426"><ele>1874.4578</ele><time>2026-07-13T18:32:15.000Z</time></trkpt>
        <trkpt lat="27.81606" lon="104.340423"><ele>1874.6733</ele><time>2026-07-13T18:32:20.000Z</time></trkpt>
        <trkpt lat="27.816108" lon="104.34042"><ele>1875.0485</ele><time>2026-07-13T18:32:25.000Z</time></trkpt>
        <trkpt lat="27.816161" lon="104.340418"><ele>1875.5204</ele><time>2026-07-13T18:32:30.000Z</time></trkpt>
        <trkpt lat="27.81621" lon="104.340418"><ele>1875.6853</ele><time>2026-07-13T18:32:35.000Z</time></trkpt>
        <trkpt lat="27.816258" lon="104.340418"><ele>1875.7549</ele><time>2026-07-13T18:32:40.000Z</time></trkpt>
        <trkpt lat="27.816308" lon="104.340414"><ele>1875.8698</ele><time>2026-07-13T18:32:45.000Z</time></trkpt>
        <trkpt lat="27.816359" lon="104.34041"><ele>1876.075</ele><time>2026-07-13T18:32:50.000Z</time></trkpt>
        <trkpt lat="27.816409" lon="104.340411"><ele>1876.2405</ele><time>2026-07-13T18:32:55.000Z</time></trkpt>
        <trkpt lat="27.816458" lon="104.340414"><ele>1876.4073</ele><time>2026-07-13T18:33:00.000Z</time></trkpt>
        <trkpt lat="27.816509" lon="104.340411"><ele>1876.3202</ele><time>2026-07-13T18:33:05.000Z</time></trkpt>
        <trkpt lat="27.816561" lon="104.340404"><ele>1876.1775</ele><time>2026-07-13T18:33:10.000Z</time></trkpt>
        <trkpt lat="27.816608" lon="104.340389"><ele>1876.5283</ele><time>2026-07-13T18:33:15.000Z</time></trkpt>
        <trkpt lat="27.816653" lon="104.340378"><ele>1876.9528</ele><time>2026-07-13T18:33:21.000Z</time></trkpt>
        <trkpt lat="27.816701" lon="104.340362"><ele>1877.3416</ele><time>2026-07-13T18:33:27.000Z</time></trkpt>
        <trkpt lat="27.816743" lon="104.340338"><ele>1877.2235</ele><time>2026-07-13T18:33:38.000Z</time></trkpt>
        <trkpt lat="27.816699" lon="104.340354"><ele>1876.8314</ele><time>2026-07-13T18:34:15.000Z</time></trkpt>
        <trkpt lat="27.816747" lon="104.340331"><ele>1878.3185</ele><time>2026-07-13T18:34:46.000Z</time></trkpt>
        <trkpt lat="27.816701" lon="104.340362"><ele>1878.1675</ele><time>2026-07-13T18:35:22.000Z</time></trkpt>
        <trkpt lat="27.816654" lon="104.340368"><ele>1878.1963</ele><time>2026-07-13T18:36:26.000Z</time></trkpt>
        <trkpt lat="27.816695" lon="104.340348"><ele>1879.2004</ele><time>2026-07-13T18:40:50.000Z</time></trkpt>
        <trkpt lat="27.816739" lon="104.340332"><ele>1879.4423</ele><time>2026-07-13T18:40:55.000Z</time></trkpt>
        <trkpt lat="27.816781" lon="104.340307"><ele>1879.4229</ele><time>2026-07-13T18:41:01.000Z</time></trkpt>
        <trkpt lat="27.816744" lon="104.340339"><ele>1879.4651</ele><time>2026-07-13T18:41:18.000Z</time></trkpt>
        <trkpt lat="27.816704" lon="104.340367"><ele>1879.5033</ele><time>2026-07-13T18:41:22.000Z</time></trkpt>
        <trkpt lat="27.816657" lon="104.340376"><ele>1879.5109</ele><time>2026-07-13T18:41:51.000Z</time></trkpt>
        <trkpt lat="27.816612" lon="104.340385"><ele>1878.5405</ele><time>2026-07-13T18:43:37.000Z</time></trkpt>
        <trkpt lat="27.816657" lon="104.340373"><ele>1879.9059</ele><time>2026-07-13T18:44:20.000Z</time></trkpt>
        <trkpt lat="27.816633" lon="104.34039"><ele>1876.0312</ele><time>2026-07-13T18:45:21.000Z</time></trkpt>
        <trkpt lat="27.816588" lon="104.340397"><ele>1877.3107</ele><time>2026-07-13T18:46:28.000Z</time></trkpt>
        <trkpt lat="27.816534" lon="104.340405"><ele>1877.6985</ele><time>2026-07-13T18:46:34.000Z</time></trkpt>
        <trkpt lat="27.816489" lon="104.340411"><ele>1877.8295</ele><time>2026-07-13T18:46:39.000Z</time></trkpt>
        <trkpt lat="27.816443" lon="104.340417"><ele>1877.4926</ele><time>2026-07-13T18:46:44.000Z</time></trkpt>
        <trkpt lat="27.816396" lon="104.340416"><ele>1877.398</ele><time>2026-07-13T18:46:49.000Z</time></trkpt>
        <trkpt lat="27.816351" lon="104.340416"><ele>1877.4294</ele><time>2026-07-13T18:46:53.000Z</time></trkpt>
        <trkpt lat="27.816304" lon="104.340421"><ele>1877.0211</ele><time>2026-07-13T18:46:58.000Z</time></trkpt>
        <trkpt lat="27.816252" lon="104.340423"><ele>1876.8064</ele><time>2026-07-13T18:47:03.000Z</time></trkpt>
        <trkpt lat="27.816205" lon="104.340421"><ele>1876.7549</ele><time>2026-07-13T18:47:08.000Z</time></trkpt>
        <trkpt lat="27.816153" lon="104.340418"><ele>1876.541</ele><time>2026-07-13T18:47:13.000Z</time></trkpt>
        <trkpt lat="27.816103" lon="104.340416"><ele>1876.5538</ele><time>2026-07-13T18:47:18.000Z</time></trkpt>
        <trkpt lat="27.816048" lon="104.340422"><ele>1876.636</ele><time>2026-07-13T18:47:23.000Z</time></trkpt>
        <trkpt lat="27.815995" lon="104.340432"><ele>1876.5228</ele><time>2026-07-13T18:47:29.000Z</time></trkpt>
        <trkpt lat="27.81594" lon="104.340435"><ele>1876.3651</ele><time>2026-07-13T18:47:34.000Z</time></trkpt>
        <trkpt lat="27.815889" lon="104.340433"><ele>1876.3693</ele><time>2026-07-13T18:47:39.000Z</time></trkpt>
        <trkpt lat="27.815836" lon="104.340431"><ele>1876.6553</ele><time>2026-07-13T18:47:44.000Z</time></trkpt>
        <trkpt lat="27.815788" lon="104.340412"><ele>1876.7676</ele><time>2026-07-13T18:47:49.000Z</time></trkpt>
        <trkpt lat="27.815741" lon="104.340381"><ele>1876.5853</ele><time>2026-07-13T18:47:54.000Z</time></trkpt>
        <trkpt lat="27.815704" lon="104.340349"><ele>1876.7698</ele><time>2026-07-13T18:47:59.000Z</time></trkpt>
        <trkpt lat="27.815666" lon="104.340317"><ele>1876.7811</ele><time>2026-07-13T18:48:04.000Z</time></trkpt>
        <trkpt lat="27.815634" lon="104.340279"><ele>1876.7548</ele><time>2026-07-13T18:48:09.000Z</time></trkpt>
        <trkpt lat="27.815601" lon="104.340238"><ele>1876.6274</ele><time>2026-07-13T18:48:14.000Z</time></trkpt>
        <trkpt lat="27.815568" lon="104.340195"><ele>1876.8008</ele><time>2026-07-13T18:48:19.000Z</time></trkpt>
        <trkpt lat="27.815539" lon="104.340146"><ele>1876.6523</ele><time>2026-07-13T18:48:24.000Z</time></trkpt>
        <trkpt lat="27.815513" lon="104.340093"><ele>1876.7418</ele><time>2026-07-13T18:48:29.000Z</time></trkpt>
        <trkpt lat="27.815486" lon="104.340042"><ele>1876.7023</ele><time>2026-07-13T18:48:34.000Z</time></trkpt>
        <trkpt lat="27.815457" lon="104.339996"><ele>1876.3784</ele><time>2026-07-13T18:48:39.000Z</time></trkpt>
        <trkpt lat="27.81543" lon="104.33995"><ele>1876.2437</ele><time>2026-07-13T18:48:44.000Z</time></trkpt>
        <trkpt lat="27.815398" lon="104.339912"><ele>1875.8201</ele><time>2026-07-13T18:48:50.000Z</time></trkpt>
        <trkpt lat="27.815354" lon="104.339879"><ele>1875.6759</ele><time>2026-07-13T18:48:56.000Z</time></trkpt>
        <trkpt lat="27.815305" lon="104.339863"><ele>1875.4635</ele><time>2026-07-13T18:49:02.000Z</time></trkpt>
        <trkpt lat="27.815259" lon="104.339852"><ele>1875.135</ele><time>2026-07-13T18:49:07.000Z</time></trkpt>
        <trkpt lat="27.815214" lon="104.339845"><ele>1874.9648</ele><time>2026-07-13T18:49:12.000Z</time></trkpt>
        <trkpt lat="27.815165" lon="104.339839"><ele>1874.3698</ele><time>2026-07-13T18:50:25.000Z</time></trkpt>
        <trkpt lat="27.815095" lon="104.339837"><ele>1873.9977</ele><time>2026-07-13T18:50:37.000Z</time></trkpt>
        <trkpt lat="27.815043" lon="104.33983"><ele>1873.9142</ele><time>2026-07-13T18:50:38.000Z</time></trkpt>
        <trkpt lat="27.81499" lon="104.339818"><ele>1873.7954</ele><time>2026-07-13T18:50:39.000Z</time></trkpt>
        <trkpt lat="27.81492" lon="104.339793"><ele>1873.7122</ele><time>2026-07-13T18:50:41.000Z</time></trkpt>
        <trkpt lat="27.814855" lon="104.339767"><ele>1873.6364</ele><time>2026-07-13T18:50:43.000Z</time></trkpt>
        <trkpt lat="27.814785" lon="104.339765"><ele>1873.6608</ele><time>2026-07-13T18:50:45.000Z</time></trkpt>
        <trkpt lat="27.814716" lon="104.33979"><ele>1873.5469</ele><time>2026-07-13T18:50:47.000Z</time></trkpt>
        <trkpt lat="27.814638" lon="104.339859"><ele>1873.1364</ele><time>2026-07-13T18:50:50.000Z</time></trkpt>
        <trkpt lat="27.814596" lon="104.339918"><ele>1873.009</ele><time>2026-07-13T18:50:52.000Z</time></trkpt>
        <trkpt lat="27.814561" lon="104.339978"><ele>1873.2235</ele><time>2026-07-13T18:50:54.000Z</time></trkpt>
        <trkpt lat="27.81453" lon="104.34004"><ele>1873.0587</ele><time>2026-07-13T18:50:56.000Z</time></trkpt>
        <trkpt lat="27.814507" lon="104.340113"><ele>1872.8186</ele><time>2026-07-13T18:50:58.000Z</time></trkpt>
        <trkpt lat="27.814495" lon="104.34018"><ele>1872.7421</ele><time>2026-07-13T18:51:00.000Z</time></trkpt>
        <trkpt lat="27.814477" lon="104.340259"><ele>1872.787</ele><time>2026-07-13T18:51:02.000Z</time></trkpt>
        <trkpt lat="27.814449" lon="104.340341"><ele>1872.651</ele><time>2026-07-13T18:51:04.000Z</time></trkpt>
        <trkpt lat="27.814421" lon="104.340413"><ele>1872.3628</ele><time>2026-07-13T18:51:07.000Z</time></trkpt>
        <trkpt lat="27.814371" lon="104.340506"><ele>1872.004</ele><time>2026-07-13T18:51:09.000Z</time></trkpt>
        <trkpt lat="27.814338" lon="104.34055"><ele>1871.9073</ele><time>2026-07-13T18:51:10.000Z</time></trkpt>
        <trkpt lat="27.814285" lon="104.340606"><ele>1871.6678</ele><time>2026-07-13T18:51:12.000Z</time></trkpt>
        <trkpt lat="27.814228" lon="104.340656"><ele>1871.6403</ele><time>2026-07-13T18:51:14.000Z</time></trkpt>
        <trkpt lat="27.814178" lon="104.340702"><ele>1871.548</ele><time>2026-07-13T18:51:16.000Z</time></trkpt>
        <trkpt lat="27.814127" lon="104.340752"><ele>1871.3394</ele><time>2026-07-13T18:51:18.000Z</time></trkpt>
        <trkpt lat="27.814074" lon="104.340802"><ele>1871.0015</ele><time>2026-07-13T18:51:20.000Z</time></trkpt>
        <trkpt lat="27.814015" lon="104.340857"><ele>1870.7438</ele><time>2026-07-13T18:51:22.000Z</time></trkpt>
        <trkpt lat="27.813961" lon="104.340908"><ele>1870.5066</ele><time>2026-07-13T18:51:24.000Z</time></trkpt>
        <trkpt lat="27.813907" lon="104.340946"><ele>1870.3358</ele><time>2026-07-13T18:51:26.000Z</time></trkpt>
        <trkpt lat="27.813849" lon="104.340979"><ele>1870.1471</ele><time>2026-07-13T18:51:28.000Z</time></trkpt>
        <trkpt lat="27.813788" lon="104.34099"><ele>1869.953</ele><time>2026-07-13T18:51:30.000Z</time></trkpt>
        <trkpt lat="27.813725" lon="104.340981"><ele>1869.5491</ele><time>2026-07-13T18:51:32.000Z</time></trkpt>
        <trkpt lat="27.813661" lon="104.340963"><ele>1869.18</ele><time>2026-07-13T18:51:34.000Z</time></trkpt>
        <trkpt lat="27.813601" lon="104.340972"><ele>1869.2705</ele><time>2026-07-13T18:51:36.000Z</time></trkpt>
        <trkpt lat="27.813532" lon="104.340987"><ele>1868.8982</ele><time>2026-07-13T18:51:38.000Z</time></trkpt>
        <trkpt lat="27.813446" lon="104.34099"><ele>1868.6688</ele><time>2026-07-13T18:51:40.000Z</time></trkpt>
        <trkpt lat="27.813364" lon="104.340997"><ele>1868.5825</ele><time>2026-07-13T18:51:42.000Z</time></trkpt>
        <trkpt lat="27.813285" lon="104.341004"><ele>1868.5342</ele><time>2026-07-13T18:51:44.000Z</time></trkpt>
        <trkpt lat="27.813215" lon="104.341022"><ele>1868.4939</ele><time>2026-07-13T18:51:46.000Z</time></trkpt>
        <trkpt lat="27.813156" lon="104.341055"><ele>1868.028</ele><time>2026-07-13T18:51:48.000Z</time></trkpt>
        <trkpt lat="27.813102" lon="104.341097"><ele>1867.593</ele><time>2026-07-13T18:51:50.000Z</time></trkpt>
        <trkpt lat="27.813052" lon="104.341141"><ele>1867.2377</ele><time>2026-07-13T18:51:52.000Z</time></trkpt>
        <trkpt lat="27.813007" lon="104.341198"><ele>1867.0607</ele><time>2026-07-13T18:51:54.000Z</time></trkpt>
        <trkpt lat="27.812955" lon="104.341259"><ele>1866.7816</ele><time>2026-07-13T18:51:56.000Z</time></trkpt>
        <trkpt lat="27.812908" lon="104.341312"><ele>1866.5673</ele><time>2026-07-13T18:51:58.000Z</time></trkpt>
        <trkpt lat="27.81286" lon="104.341363"><ele>1866.5885</ele><time>2026-07-13T18:52:00.000Z</time></trkpt>
        <trkpt lat="27.812816" lon="104.341407"><ele>1866.5383</ele><time>2026-07-13T18:52:02.000Z</time></trkpt>
        <trkpt lat="27.812767" lon="104.341444"><ele>1866.535</ele><time>2026-07-13T18:52:04.000Z</time></trkpt>
        <trkpt lat="27.812705" lon="104.341472"><ele>1866.3737</ele><time>2026-07-13T18:52:06.000Z</time></trkpt>
        <trkpt lat="27.81264" lon="104.341488"><ele>1866.1888</ele><time>2026-07-13T18:52:08.000Z</time></trkpt>
        <trkpt lat="27.812572" lon="104.34149"><ele>1866.0721</ele><time>2026-07-13T18:52:10.000Z</time></trkpt>
        <trkpt lat="27.812507" lon="104.341484"><ele>1865.766</ele><time>2026-07-13T18:52:12.000Z</time></trkpt>
        <trkpt lat="27.812457" lon="104.341475"><ele>1865.72</ele><time>2026-07-13T18:52:14.000Z</time></trkpt>
        <trkpt lat="27.8124" lon="104.341461"><ele>1865.6119</ele><time>2026-07-13T18:52:18.000Z</time></trkpt>
        <trkpt lat="27.812351" lon="104.341453"><ele>1865.3918</ele><time>2026-07-13T18:52:20.000Z</time></trkpt>
        <trkpt lat="27.812294" lon="104.341436"><ele>1865.2618</ele><time>2026-07-13T18:52:22.000Z</time></trkpt>
        <trkpt lat="27.812245" lon="104.34142"><ele>1865.1061</ele><time>2026-07-13T18:52:24.000Z</time></trkpt>
        <trkpt lat="27.8122" lon="104.341401"><ele>1865.0839</ele><time>2026-07-13T18:52:27.000Z</time></trkpt>
        <trkpt lat="27.812242" lon="104.341422"><ele>1864.5593</ele><time>2026-07-13T18:53:27.000Z</time></trkpt>
        <trkpt lat="27.812255" lon="104.341472"><ele>1865.0771</ele><time>2026-07-13T18:53:48.000Z</time></trkpt>
        <trkpt lat="27.812234" lon="104.341519"><ele>1864.8451</ele><time>2026-07-13T18:54:16.000Z</time></trkpt>
        <trkpt lat="27.812189" lon="104.341538"><ele>1864.3854</ele><time>2026-07-13T18:54:35.000Z</time></trkpt>
        <trkpt lat="27.812152" lon="104.341576"><ele>1863.7349</ele><time>2026-07-13T18:54:42.000Z</time></trkpt>
        <trkpt lat="27.81212" lon="104.341615"><ele>1863.4492</ele><time>2026-07-13T18:54:56.000Z</time></trkpt>
        <trkpt lat="27.812086" lon="104.341655"><ele>1863.3088</ele><time>2026-07-13T18:55:06.000Z</time></trkpt>
        <trkpt lat="27.812071" lon="104.341704"><ele>1863.3354</ele><time>2026-07-13T18:55:15.000Z</time></trkpt>
        <trkpt lat="27.81206" lon="104.341756"><ele>1863.0836</ele><time>2026-07-13T18:55:25.000Z</time></trkpt>
        <trkpt lat="27.812052" lon="104.34181"><ele>1862.6204</ele><time>2026-07-13T18:55:33.000Z</time></trkpt>
        <trkpt lat="27.812057" lon="104.341865"><ele>1862.0972</ele><time>2026-07-13T18:55:45.000Z</time></trkpt>
        <trkpt lat="27.812053" lon="104.341809"><ele>1862.1477</ele><time>2026-07-13T18:55:57.000Z</time></trkpt>
        <trkpt lat="27.812051" lon="104.341759"><ele>1863.2523</ele><time>2026-07-13T18:56:23.000Z</time></trkpt>
        <trkpt lat="27.812067" lon="104.341708"><ele>1863.1271</ele><time>2026-07-13T18:56:35.000Z</time></trkpt>
        <trkpt lat="27.812092" lon="104.341664"><ele>1863.4323</ele><time>2026-07-13T18:56:47.000Z</time></trkpt>
        <trkpt lat="27.812112" lon="104.341618"><ele>1863.4529</ele><time>2026-07-13T18:56:55.000Z</time></trkpt>
        <trkpt lat="27.812147" lon="104.341583"><ele>1863.43</ele><time>2026-07-13T18:57:03.000Z</time></trkpt>
        <trkpt lat="27.812179" lon="104.341543"><ele>1863.6537</ele><time>2026-07-13T18:57:11.000Z</time></trkpt>
        <trkpt lat="27.812203" lon="104.341497"><ele>1862.975</ele><time>2026-07-13T18:57:24.000Z</time></trkpt>
        <trkpt lat="27.812208" lon="104.341442"><ele>1864.0945</ele><time>2026-07-13T18:57:42.000Z</time></trkpt>
        <trkpt lat="27.812255" lon="104.34143"><ele>1864.4138</ele><time>2026-07-13T18:57:50.000Z</time></trkpt>
        <trkpt lat="27.812307" lon="104.341445"><ele>1864.5402</ele><time>2026-07-13T18:57:56.000Z</time></trkpt>
        <trkpt lat="27.812353" lon="104.341465"><ele>1865.0985</ele><time>2026-07-13T18:58:05.000Z</time></trkpt>
        <trkpt lat="27.812398" lon="104.341478"><ele>1865.078</ele><time>2026-07-13T18:58:11.000Z</time></trkpt>
        <trkpt lat="27.812402" lon="104.341532"><ele>1865.0105</ele><time>2026-07-13T18:58:29.000Z</time></trkpt>
        <trkpt lat="27.812388" lon="104.341584"><ele>1864.9031</ele><time>2026-07-13T18:58:34.000Z</time></trkpt>
        <trkpt lat="27.812379" lon="104.341637"><ele>1864.7151</ele><time>2026-07-13T18:58:39.000Z</time></trkpt>
        <trkpt lat="27.812388" lon="104.341692"><ele>1864.2621</ele><time>2026-07-13T18:58:45.000Z</time></trkpt>
        <trkpt lat="27.812382" lon="104.341743"><ele>1863.9495</ele><time>2026-07-13T18:58:53.000Z</time></trkpt>
        <trkpt lat="27.812375" lon="104.341793"><ele>1863.7037</ele><time>2026-07-13T18:58:59.000Z</time></trkpt>
        <trkpt lat="27.812346" lon="104.341836"><ele>1863.3615</ele><time>2026-07-13T18:59:05.000Z</time></trkpt>
        <trkpt lat="27.81232" lon="104.341888"><ele>1863.1072</ele><time>2026-07-13T18:59:10.000Z</time></trkpt>
        <trkpt lat="27.812314" lon="104.341944"><ele>1862.9056</ele><time>2026-07-13T18:59:17.000Z</time></trkpt>
        <trkpt lat="27.812309" lon="104.341995"><ele>1862.8458</ele><time>2026-07-13T18:59:22.000Z</time></trkpt>
        <trkpt lat="27.812304" lon="104.342049"><ele>1862.6625</ele><time>2026-07-13T18:59:27.000Z</time></trkpt>
        <trkpt lat="27.812288" lon="104.3421"><ele>1862.7738</ele><time>2026-07-13T18:59:34.000Z</time></trkpt>
        <trkpt lat="27.812261" lon="104.342145"><ele>1862.6672</ele><time>2026-07-13T18:59:41.000Z</time></trkpt>
        <trkpt lat="27.812224" lon="104.342185"><ele>1862.4747</ele><time>2026-07-13T18:59:48.000Z</time></trkpt>
        <trkpt lat="27.812192" lon="104.342223"><ele>1862.4634</ele><time>2026-07-13T18:59:54.000Z</time></trkpt>
        <trkpt lat="27.812174" lon="104.342271"><ele>1862.6545</ele><time>2026-07-13T19:00:01.000Z</time></trkpt>
        <trkpt lat="27.812154" lon="104.342321"><ele>1862.4974</ele><time>2026-07-13T19:00:07.000Z</time></trkpt>
        <trkpt lat="27.812137" lon="104.342368"><ele>1861.8934</ele><time>2026-07-13T19:00:12.000Z</time></trkpt>
        <trkpt lat="27.812109" lon="104.342415"><ele>1861.6824</ele><time>2026-07-13T19:00:19.000Z</time></trkpt>
        <trkpt lat="27.81208" lon="104.342464"><ele>1861.7869</ele><time>2026-07-13T19:00:26.000Z</time></trkpt>
        <trkpt lat="27.812042" lon="104.342504"><ele>1861.8673</ele><time>2026-07-13T19:00:32.000Z</time></trkpt>
        <trkpt lat="27.812008" lon="104.34254"><ele>1860.6841</ele><time>2026-07-13T19:00:43.000Z</time></trkpt>
        <trkpt lat="27.811988" lon="104.34259"><ele>1859.4948</ele><time>2026-07-13T19:00:49.000Z</time></trkpt>
        <trkpt lat="27.811987" lon="104.342641"><ele>1859.3134</ele><time>2026-07-13T19:00:54.000Z</time></trkpt>
        <trkpt lat="27.811988" lon="104.342701"><ele>1859.61</ele><time>2026-07-13T19:01:00.000Z</time></trkpt>
        <trkpt lat="27.811967" lon="104.342752"><ele>1859.285</ele><time>2026-07-13T19:01:06.000Z</time></trkpt>
        <trkpt lat="27.811921" lon="104.342767"><ele>1858.8352</ele><time>2026-07-13T19:01:12.000Z</time></trkpt>
        <trkpt lat="27.811872" lon="104.34278"><ele>1858.7471</ele><time>2026-07-13T19:01:18.000Z</time></trkpt>
        <trkpt lat="27.811838" lon="104.342817"><ele>1858.9297</ele><time>2026-07-13T19:01:24.000Z</time></trkpt>
        <trkpt lat="27.81181" lon="104.34286"><ele>1858.3228</ele><time>2026-07-13T19:01:29.000Z</time></trkpt>
        <trkpt lat="27.811778" lon="104.342906"><ele>1857.8103</ele><time>2026-07-13T19:01:34.000Z</time></trkpt>
        <trkpt lat="27.811731" lon="104.342927"><ele>1857.4592</ele><time>2026-07-13T19:01:39.000Z</time></trkpt>
        <trkpt lat="27.811679" lon="104.342924"><ele>1857.1569</ele><time>2026-07-13T19:01:44.000Z</time></trkpt>
        <trkpt lat="27.811635" lon="104.342946"><ele>1856.6385</ele><time>2026-07-13T19:01:50.000Z</time></trkpt>
        <trkpt lat="27.811605" lon="104.342988"><ele>1856.1918</ele><time>2026-07-13T19:01:58.000Z</time></trkpt>
        <trkpt lat="27.811578" lon="104.343035"><ele>1855.5107</ele><time>2026-07-13T19:02:06.000Z</time></trkpt>
        <trkpt lat="27.811542" lon="104.343067"><ele>1854.7067</ele><time>2026-07-13T19:02:13.000Z</time></trkpt>
        <trkpt lat="27.811515" lon="104.34311"><ele>1852.9512</ele><time>2026-07-13T19:02:35.000Z</time></trkpt>
        <trkpt lat="27.811511" lon="104.343166"><ele>1852.2917</ele><time>2026-07-13T19:02:47.000Z</time></trkpt>
        <trkpt lat="27.811526" lon="104.343221"><ele>1851.7854</ele><time>2026-07-13T19:02:54.000Z</time></trkpt>
        <trkpt lat="27.811492" lon="104.343257"><ele>1850.7402</ele><time>2026-07-13T19:03:50.000Z</time></trkpt>
        <trkpt lat="27.811482" lon="104.343307"><ele>1850.486</ele><time>2026-07-13T19:04:13.000Z</time></trkpt>
        <trkpt lat="27.811473" lon="104.343367"><ele>1850.167</ele><time>2026-07-13T19:04:21.000Z</time></trkpt>
        <trkpt lat="27.811455" lon="104.343418"><ele>1850.0468</ele><time>2026-07-13T19:04:27.000Z</time></trkpt>
        <trkpt lat="27.81144" lon="104.343472"><ele>1848.4396</ele><time>2026-07-13T19:04:59.000Z</time></trkpt>
        <trkpt lat="27.811431" lon="104.343531"><ele>1848.4487</ele><time>2026-07-13T19:05:05.000Z</time></trkpt>
        <trkpt lat="27.811403" lon="104.34358"><ele>1848.3397</ele><time>2026-07-13T19:05:12.000Z</time></trkpt>
        <trkpt lat="27.811373" lon="104.343625"><ele>1848.076</ele><time>2026-07-13T19:05:20.000Z</time></trkpt>
        <trkpt lat="27.811416" lon="104.343635"><ele>1846.5337</ele><time>2026-07-13T19:07:29.000Z</time></trkpt>
        <trkpt lat="27.811397" lon="104.343684"><ele>1846.4363</ele><time>2026-07-13T19:10:43.000Z</time></trkpt>
        <trkpt lat="27.81143" lon="104.34365"><ele>1844.6177</ele><time>2026-07-13T19:13:41.000Z</time></trkpt>
        <trkpt lat="27.811431" lon="104.343593"><ele>1844.1113</ele><time>2026-07-13T19:13:56.000Z</time></trkpt>
        <trkpt lat="27.81143" lon="104.343542"><ele>1844.3457</ele><time>2026-07-13T19:14:06.000Z</time></trkpt>
        <trkpt lat="27.811433" lon="104.343486"><ele>1844.5568</ele><time>2026-07-13T19:14:14.000Z</time></trkpt>
        <trkpt lat="27.81147" lon="104.343442"><ele>1844.463</ele><time>2026-07-13T19:14:31.000Z</time></trkpt>
        <trkpt lat="27.811479" lon="104.343391"><ele>1844.5718</ele><time>2026-07-13T19:14:38.000Z</time></trkpt>
        <trkpt lat="27.8115" lon="104.34334"><ele>1845.1744</ele><time>2026-07-13T19:15:06.000Z</time></trkpt>
        <trkpt lat="27.811501" lon="104.343287"><ele>1845.6571</ele><time>2026-07-13T19:15:15.000Z</time></trkpt>
        <trkpt lat="27.811511" lon="104.343236"><ele>1845.4882</ele><time>2026-07-13T19:15:27.000Z</time></trkpt>
        <trkpt lat="27.811536" lon="104.343192"><ele>1845.6979</ele><time>2026-07-13T19:15:36.000Z</time></trkpt>
        <trkpt lat="27.81153" lon="104.343138"><ele>1845.9663</ele><time>2026-07-13T19:15:42.000Z</time></trkpt>
        <trkpt lat="27.81155" lon="104.343089"><ele>1846.643</ele><time>2026-07-13T19:15:52.000Z</time></trkpt>
        <trkpt lat="27.811575" lon="104.343044"><ele>1848.2356</ele><time>2026-07-13T19:16:02.000Z</time></trkpt>
        <trkpt lat="27.811605" lon="104.343003"><ele>1848.705</ele><time>2026-07-13T19:16:11.000Z</time></trkpt>
        <trkpt lat="27.811631" lon="104.342964"><ele>1850.1102</ele><time>2026-07-13T19:16:18.000Z</time></trkpt>
        <trkpt lat="27.811672" lon="104.342932"><ele>1851.0183</ele><time>2026-07-13T19:16:26.000Z</time></trkpt>
        <trkpt lat="27.811719" lon="104.342912"><ele>1851.3314</ele><time>2026-07-13T19:16:34.000Z</time></trkpt>
        <trkpt lat="27.81177" lon="104.342905"><ele>1851.7515</ele><time>2026-07-13T19:16:41.000Z</time></trkpt>
        <trkpt lat="27.811805" lon="104.342874"><ele>1852.0707</ele><time>2026-07-13T19:16:47.000Z</time></trkpt>
        <trkpt lat="27.811837" lon="104.342835"><ele>1852.4528</ele><time>2026-07-13T19:16:54.000Z</time></trkpt>
        <trkpt lat="27.811877" lon="104.3428"><ele>1852.5613</ele><time>2026-07-13T19:17:02.000Z</time></trkpt>
        <trkpt lat="27.81192" lon="104.342776"><ele>1852.5215</ele><time>2026-07-13T19:17:08.000Z</time></trkpt>
        <trkpt lat="27.811965" lon="104.342767"><ele>1853.1901</ele><time>2026-07-13T19:17:15.000Z</time></trkpt>
        <trkpt lat="27.811982" lon="104.342715"><ele>1854.5787</ele><time>2026-07-13T19:17:21.000Z</time></trkpt>
        <trkpt lat="27.811971" lon="104.342666"><ele>1855.395</ele><time>2026-07-13T19:17:26.000Z</time></trkpt>
        <trkpt lat="27.811963" lon="104.342613"><ele>1855.9761</ele><time>2026-07-13T19:17:32.000Z</time></trkpt>
        <trkpt lat="27.811983" lon="104.342566"><ele>1856.4755</ele><time>2026-07-13T19:17:39.000Z</time></trkpt>
        <trkpt lat="27.812015" lon="104.34253"><ele>1857.5315</ele><time>2026-07-13T19:17:45.000Z</time></trkpt>
        <trkpt lat="27.812054" lon="104.3425"><ele>1858.304</ele><time>2026-07-13T19:17:51.000Z</time></trkpt>
        <trkpt lat="27.812079" lon="104.34245"><ele>1859.0603</ele><time>2026-07-13T19:17:58.000Z</time></trkpt>
        <trkpt lat="27.812111" lon="104.342407"><ele>1859.6034</ele><time>2026-07-13T19:18:05.000Z</time></trkpt>
        <trkpt lat="27.812143" lon="104.342366"><ele>1860.044</ele><time>2026-07-13T19:18:12.000Z</time></trkpt>
        <trkpt lat="27.812164" lon="104.342318"><ele>1860.2997</ele><time>2026-07-13T19:18:18.000Z</time></trkpt>
        <trkpt lat="27.812187" lon="104.34227"><ele>1860.2617</ele><time>2026-07-13T19:18:24.000Z</time></trkpt>
        <trkpt lat="27.812205" lon="104.342217"><ele>1860.4148</ele><time>2026-07-13T19:18:31.000Z</time></trkpt>
        <trkpt lat="27.81224" lon="104.342184"><ele>1860.4614</ele><time>2026-07-13T19:18:38.000Z</time></trkpt>
        <trkpt lat="27.812272" lon="104.342145"><ele>1860.4529</ele><time>2026-07-13T19:18:44.000Z</time></trkpt>
        <trkpt lat="27.812303" lon="104.342095"><ele>1860.508</ele><time>2026-07-13T19:18:51.000Z</time></trkpt>
        <trkpt lat="27.812313" lon="104.342039"><ele>1860.5575</ele><time>2026-07-13T19:18:57.000Z</time></trkpt>
        <trkpt lat="27.812317" lon="104.341986"><ele>1860.3884</ele><time>2026-07-13T19:19:05.000Z</time></trkpt>
        <trkpt lat="27.81232" lon="104.341934"><ele>1860.3136</ele><time>2026-07-13T19:19:11.000Z</time></trkpt>
        <trkpt lat="27.812326" lon="104.341881"><ele>1860.517</ele><time>2026-07-13T19:19:17.000Z</time></trkpt>
        <trkpt lat="27.812348" lon="104.341831"><ele>1860.5282</ele><time>2026-07-13T19:19:24.000Z</time></trkpt>
        <trkpt lat="27.812375" lon="104.341788"><ele>1860.7712</ele><time>2026-07-13T19:19:32.000Z</time></trkpt>
        <trkpt lat="27.812391" lon="104.34174"><ele>1860.9812</ele><time>2026-07-13T19:19:39.000Z</time></trkpt>
        <trkpt lat="27.812393" lon="104.341686"><ele>1860.684</ele><time>2026-07-13T19:19:46.000Z</time></trkpt>
        <trkpt lat="27.812383" lon="104.341634"><ele>1860.5387</ele><time>2026-07-13T19:19:53.000Z</time></trkpt>
        <trkpt lat="27.812401" lon="104.34158"><ele>1860.9717</ele><time>2026-07-13T19:20:00.000Z</time></trkpt>
        <trkpt lat="27.812421" lon="104.341528"><ele>1861.6995</ele><time>2026-07-13T19:20:06.000Z</time></trkpt>
        <trkpt lat="27.812405" lon="104.341476"><ele>1862.6766</ele><time>2026-07-13T19:20:14.000Z</time></trkpt>
        <trkpt lat="27.812359" lon="104.341464"><ele>1863.378</ele><time>2026-07-13T19:20:19.000Z</time></trkpt>
        <trkpt lat="27.812311" lon="104.341458"><ele>1863.7861</ele><time>2026-07-13T19:20:24.000Z</time></trkpt>
        <trkpt lat="27.812259" lon="104.341442"><ele>1864.3905</ele><time>2026-07-13T19:20:30.000Z</time></trkpt>
        <trkpt lat="27.812217" lon="104.341419"><ele>1865.08</ele><time>2026-07-13T19:20:35.000Z</time></trkpt>
        <trkpt lat="27.812165" lon="104.341398"><ele>1865.6708</ele><time>2026-07-13T19:21:44.000Z</time></trkpt>
        <trkpt lat="27.812117" lon="104.341389"><ele>1866.3038</ele><time>2026-07-13T19:21:46.000Z</time></trkpt>
        <trkpt lat="27.812059" lon="104.341376"><ele>1866.826</ele><time>2026-07-13T19:21:47.000Z</time></trkpt>
        <trkpt lat="27.811997" lon="104.341356"><ele>1867.1025</ele><time>2026-07-13T19:21:48.000Z</time></trkpt>
        <trkpt lat="27.811943" lon="104.341323"><ele>1867.0427</ele><time>2026-07-13T19:21:49.000Z</time></trkpt>
        <trkpt lat="27.811901" lon="104.341276"><ele>1867.0334</ele><time>2026-07-13T19:21:50.000Z</time></trkpt>
        <trkpt lat="27.811867" lon="104.341225"><ele>1866.8234</ele><time>2026-07-13T19:21:51.000Z</time></trkpt>
        <trkpt lat="27.811841" lon="104.341179"><ele>1866.8503</ele><time>2026-07-13T19:21:52.000Z</time></trkpt>
        <trkpt lat="27.811791" lon="104.341101"><ele>1867.0714</ele><time>2026-07-13T19:21:54.000Z</time></trkpt>
        <trkpt lat="27.811749" lon="104.341029"><ele>1867.142</ele><time>2026-07-13T19:21:56.000Z</time></trkpt>
        <trkpt lat="27.811712" lon="104.340956"><ele>1867.3782</ele><time>2026-07-13T19:21:58.000Z</time></trkpt>
        <trkpt lat="27.811668" lon="104.340879"><ele>1867.2239</ele><time>2026-07-13T19:22:00.000Z</time></trkpt>
        <trkpt lat="27.811627" lon="104.340808"><ele>1867.175</ele><time>2026-07-13T19:22:02.000Z</time></trkpt>
        <trkpt lat="27.811595" lon="104.340749"><ele>1867.1426</ele><time>2026-07-13T19:22:04.000Z</time></trkpt>
        <trkpt lat="27.811565" lon="104.340692"><ele>1867.2969</ele><time>2026-07-13T19:22:06.000Z</time></trkpt>
        <trkpt lat="27.811531" lon="104.340635"><ele>1867.4252</ele><time>2026-07-13T19:22:08.000Z</time></trkpt>
        <trkpt lat="27.811494" lon="104.340573"><ele>1867.4801</ele><time>2026-07-13T19:22:10.000Z</time></trkpt>
        <trkpt lat="27.811452" lon="104.340502"><ele>1867.7225</ele><time>2026-07-13T19:22:12.000Z</time></trkpt>
        <trkpt lat="27.811413" lon="104.340437"><ele>1867.9022</ele><time>2026-07-13T19:22:14.000Z</time></trkpt>
        <trkpt lat="27.811378" lon="104.340367"><ele>1868.099</ele><time>2026-07-13T19:22:16.000Z</time></trkpt>
        <trkpt lat="27.811345" lon="104.3403"><ele>1868.3167</ele><time>2026-07-13T19:22:18.000Z</time></trkpt>
        <trkpt lat="27.811312" lon="104.340226"><ele>1868.527</ele><time>2026-07-13T19:22:20.000Z</time></trkpt>
        <trkpt lat="27.811277" lon="104.340149"><ele>1868.8114</ele><time>2026-07-13T19:22:22.000Z</time></trkpt>
        <trkpt lat="27.811232" lon="104.340069"><ele>1869.1119</ele><time>2026-07-13T19:22:25.000Z</time></trkpt>
        <trkpt lat="27.811202" lon="104.340013"><ele>1869.315</ele><time>2026-07-13T19:22:26.000Z</time></trkpt>
        <trkpt lat="27.811171" lon="104.339959"><ele>1869.5327</ele><time>2026-07-13T19:22:27.000Z</time></trkpt>
        <trkpt lat="27.811126" lon="104.339893"><ele>1869.5945</ele><time>2026-07-13T19:22:29.000Z</time></trkpt>
        <trkpt lat="27.81108" lon="104.339841"><ele>1869.8107</ele><time>2026-07-13T19:22:31.000Z</time></trkpt>
        <trkpt lat="27.81103" lon="104.339803"><ele>1870.2299</ele><time>2026-07-13T19:22:33.000Z</time></trkpt>
        <trkpt lat="27.810974" lon="104.339788"><ele>1870.4196</ele><time>2026-07-13T19:22:35.000Z</time></trkpt>
        <trkpt lat="27.810912" lon="104.339793"><ele>1870.4391</ele><time>2026-07-13T19:22:37.000Z</time></trkpt>
        <trkpt lat="27.81084" lon="104.33982"><ele>1870.5085</ele><time>2026-07-13T19:22:39.000Z</time></trkpt>
        <trkpt lat="27.810767" lon="104.339865"><ele>1870.6635</ele><time>2026-07-13T19:22:41.000Z</time></trkpt>
        <trkpt lat="27.810699" lon="104.33989"><ele>1870.9</ele><time>2026-07-13T19:22:43.000Z</time></trkpt>
        <trkpt lat="27.81063" lon="104.3399"><ele>1870.9879</ele><time>2026-07-13T19:22:45.000Z</time></trkpt>
        <trkpt lat="27.810564" lon="104.339874"><ele>1870.9469</ele><time>2026-07-13T19:22:47.000Z</time></trkpt>
        <trkpt lat="27.810502" lon="104.339824"><ele>1871.2517</ele><time>2026-07-13T19:22:49.000Z</time></trkpt>
        <trkpt lat="27.81046" lon="104.339754"><ele>1871.8644</ele><time>2026-07-13T19:22:51.000Z</time></trkpt>
        <trkpt lat="27.810427" lon="104.339694"><ele>1871.9702</ele><time>2026-07-13T19:22:53.000Z</time></trkpt>
        <trkpt lat="27.810397" lon="104.33963"><ele>1872.5146</ele><time>2026-07-13T19:22:55.000Z</time></trkpt>
        <trkpt lat="27.810358" lon="104.33955"><ele>1872.6599</ele><time>2026-07-13T19:22:57.000Z</time></trkpt>
        <trkpt lat="27.810317" lon="104.339477"><ele>1872.9338</ele><time>2026-07-13T19:22:59.000Z</time></trkpt>
        <trkpt lat="27.810274" lon="104.339404"><ele>1873.3009</ele><time>2026-07-13T19:23:01.000Z</time></trkpt>
        <trkpt lat="27.810234" lon="104.339345"><ele>1873.5295</ele><time>2026-07-13T19:23:03.000Z</time></trkpt>
        <trkpt lat="27.810188" lon="104.33929"><ele>1873.8553</ele><time>2026-07-13T19:23:05.000Z</time></trkpt>
        <trkpt lat="27.810137" lon="104.33923"><ele>1874.3617</ele><time>2026-07-13T19:23:07.000Z</time></trkpt>
        <trkpt lat="27.810092" lon="104.339182"><ele>1874.7477</ele><time>2026-07-13T19:23:09.000Z</time></trkpt>
        <trkpt lat="27.810038" lon="104.339142"><ele>1875.4688</ele><time>2026-07-13T19:23:12.000Z</time></trkpt>
        <trkpt lat="27.809988" lon="104.339123"><ele>1875.524</ele><time>2026-07-13T19:23:14.000Z</time></trkpt>
        <trkpt lat="27.809927" lon="104.339123"><ele>1875.4867</ele><time>2026-07-13T19:23:16.000Z</time></trkpt>
        <trkpt lat="27.809845" lon="104.339151"><ele>1875.73</ele><time>2026-07-13T19:23:18.000Z</time></trkpt>
        <trkpt lat="27.809803" lon="104.339173"><ele>1875.8185</ele><time>2026-07-13T19:23:19.000Z</time></trkpt>
        <trkpt lat="27.809729" lon="104.339213"><ele>1875.9927</ele><time>2026-07-13T19:23:21.000Z</time></trkpt>
        <trkpt lat="27.809661" lon="104.339249"><ele>1876.5945</ele><time>2026-07-13T19:23:23.000Z</time></trkpt>
        <trkpt lat="27.809599" lon="104.339285"><ele>1876.9786</ele><time>2026-07-13T19:23:25.000Z</time></trkpt>
        <trkpt lat="27.809533" lon="104.339319"><ele>1877.265</ele><time>2026-07-13T19:23:27.000Z</time></trkpt>
        <trkpt lat="27.80946" lon="104.33935"><ele>1877.5435</ele><time>2026-07-13T19:23:29.000Z</time></trkpt>
        <trkpt lat="27.809401" lon="104.339364"><ele>1877.7264</ele><time>2026-07-13T19:23:31.000Z</time></trkpt>
        <trkpt lat="27.809329" lon="104.339369"><ele>1878.2429</ele><time>2026-07-13T19:23:33.000Z</time></trkpt>
        <trkpt lat="27.809257" lon="104.339364"><ele>1878.9415</ele><time>2026-07-13T19:23:35.000Z</time></trkpt>
        <trkpt lat="27.809184" lon="104.339345"><ele>1879.1893</ele><time>2026-07-13T19:23:37.000Z</time></trkpt>
        <trkpt lat="27.809113" lon="104.339318"><ele>1879.2788</ele><time>2026-07-13T19:23:39.000Z</time></trkpt>
        <trkpt lat="27.809047" lon="104.339279"><ele>1879.6075</ele><time>2026-07-13T19:23:41.000Z</time></trkpt>
        <trkpt lat="27.808984" lon="104.339235"><ele>1879.7681</ele><time>2026-07-13T19:23:43.000Z</time></trkpt>
        <trkpt lat="27.808929" lon="104.339181"><ele>1880.161</ele><time>2026-07-13T19:23:45.000Z</time></trkpt>
        <trkpt lat="27.808883" lon="104.339135"><ele>1880.5509</ele><time>2026-07-13T19:23:47.000Z</time></trkpt>
        <trkpt lat="27.808838" lon="104.339107"><ele>1881.0045</ele><time>2026-07-13T19:23:49.000Z</time></trkpt>
        <trkpt lat="27.808785" lon="104.339087"><ele>1881.2739</ele><time>2026-07-13T19:23:51.000Z</time></trkpt>
        <trkpt lat="27.808723" lon="104.339097"><ele>1881.5195</ele><time>2026-07-13T19:23:53.000Z</time></trkpt>
        <trkpt lat="27.808656" lon="104.339142"><ele>1881.8225</ele><time>2026-07-13T19:23:55.000Z</time></trkpt>
        <trkpt lat="27.808593" lon="104.339185"><ele>1881.6609</ele><time>2026-07-13T19:23:57.000Z</time></trkpt>
        <trkpt lat="27.808536" lon="104.339225"><ele>1881.7424</ele><time>2026-07-13T19:23:59.000Z</time></trkpt>
        <trkpt lat="27.80848" lon="104.339276"><ele>1882.306</ele><time>2026-07-13T19:24:01.000Z</time></trkpt>
        <trkpt lat="27.808442" lon="104.339343"><ele>1882.7269</ele><time>2026-07-13T19:24:03.000Z</time></trkpt>
        <trkpt lat="27.808416" lon="104.339417"><ele>1883.2844</ele><time>2026-07-13T19:24:05.000Z</time></trkpt>
        <trkpt lat="27.808398" lon="104.339485"><ele>1883.4586</ele><time>2026-07-13T19:24:07.000Z</time></trkpt>
        <trkpt lat="27.808387" lon="104.339568"><ele>1883.5468</ele><time>2026-07-13T19:24:09.000Z</time></trkpt>
        <trkpt lat="27.808375" lon="104.339653"><ele>1883.9414</ele><time>2026-07-13T19:24:11.000Z</time></trkpt>
        <trkpt lat="27.808348" lon="104.33973"><ele>1884.2518</ele><time>2026-07-13T19:24:13.000Z</time></trkpt>
        <trkpt lat="27.808298" lon="104.339786"><ele>1884.6926</ele><time>2026-07-13T19:24:16.000Z</time></trkpt>
        <trkpt lat="27.808255" lon="104.339812"><ele>1884.5881</ele><time>2026-07-13T19:24:17.000Z</time></trkpt>
        <trkpt lat="27.808208" lon="104.339831"><ele>1884.4938</ele><time>2026-07-13T19:24:18.000Z</time></trkpt>
        <trkpt lat="27.808132" lon="104.339857"><ele>1884.354</ele><time>2026-07-13T19:24:20.000Z</time></trkpt>
        <trkpt lat="27.808062" lon="104.339878"><ele>1884.5919</ele><time>2026-07-13T19:24:22.000Z</time></trkpt>
        <trkpt lat="27.807998" lon="104.339894"><ele>1884.915</ele><time>2026-07-13T19:24:24.000Z</time></trkpt>
        <trkpt lat="27.807929" lon="104.339904"><ele>1885.4705</ele><time>2026-07-13T19:24:26.000Z</time></trkpt>
        <trkpt lat="27.807861" lon="104.339914"><ele>1886.13</ele><time>2026-07-13T19:24:28.000Z</time></trkpt>
        <trkpt lat="27.807794" lon="104.339934"><ele>1886.5614</ele><time>2026-07-13T19:24:30.000Z</time></trkpt>
        <trkpt lat="27.807737" lon="104.339968"><ele>1887.1626</ele><time>2026-07-13T19:24:32.000Z</time></trkpt>
        <trkpt lat="27.807695" lon="104.34001"><ele>1887.7134</ele><time>2026-07-13T19:24:34.000Z</time></trkpt>
        <trkpt lat="27.807654" lon="104.340053"><ele>1888.2535</ele><time>2026-07-13T19:24:36.000Z</time></trkpt>
        <trkpt lat="27.807603" lon="104.340089"><ele>1888.7039</ele><time>2026-07-13T19:24:38.000Z</time></trkpt>
        <trkpt lat="27.807548" lon="104.340124"><ele>1889.8545</ele><time>2026-07-13T19:24:40.000Z</time></trkpt>
        <trkpt lat="27.8075" lon="104.340153"><ele>1889.7562</ele><time>2026-07-13T19:24:42.000Z</time></trkpt>
        <trkpt lat="27.807443" lon="104.340179"><ele>1889.7963</ele><time>2026-07-13T19:24:44.000Z</time></trkpt>
        <trkpt lat="27.807377" lon="104.340198"><ele>1890.2059</ele><time>2026-07-13T19:24:46.000Z</time></trkpt>
        <trkpt lat="27.807308" lon="104.340202"><ele>1890.4954</ele><time>2026-07-13T19:24:48.000Z</time></trkpt>
        <trkpt lat="27.807247" lon="104.340183"><ele>1890.5752</ele><time>2026-07-13T19:24:50.000Z</time></trkpt>
        <trkpt lat="27.8072" lon="104.34014"><ele>1890.731</ele><time>2026-07-13T19:24:52.000Z</time></trkpt>
        <trkpt lat="27.807152" lon="104.340099"><ele>1890.6353</ele><time>2026-07-13T19:24:54.000Z</time></trkpt>
        <trkpt lat="27.807087" lon="104.340104"><ele>1890.6685</ele><time>2026-07-13T19:24:56.000Z</time></trkpt>
        <trkpt lat="27.807032" lon="104.340145"><ele>1890.9342</ele><time>2026-07-13T19:24:58.000Z</time></trkpt>
        <trkpt lat="27.806971" lon="104.340169"><ele>1891.1633</ele><time>2026-07-13T19:25:00.000Z</time></trkpt>
        <trkpt lat="27.806893" lon="104.340177"><ele>1891.3009</ele><time>2026-07-13T19:25:02.000Z</time></trkpt>
        <trkpt lat="27.806848" lon="104.340182"><ele>1891.3694</ele><time>2026-07-13T19:25:03.000Z</time></trkpt>
        <trkpt lat="27.806761" lon="104.340201"><ele>1891.3832</ele><time>2026-07-13T19:25:05.000Z</time></trkpt>
        <trkpt lat="27.806682" lon="104.340226"><ele>1891.6885</ele><time>2026-07-13T19:25:07.000Z</time></trkpt>
        <trkpt lat="27.8066" lon="104.340244"><ele>1892.3618</ele><time>2026-07-13T19:25:10.000Z</time></trkpt>
        <trkpt lat="27.806544" lon="104.340256"><ele>1892.4722</ele><time>2026-07-13T19:25:11.000Z</time></trkpt>
        <trkpt lat="27.806492" lon="104.340264"><ele>1892.5707</ele><time>2026-07-13T19:25:12.000Z</time></trkpt>
        <trkpt lat="27.806416" lon="104.340269"><ele>1892.6649</ele><time>2026-07-13T19:25:14.000Z</time></trkpt>
        <trkpt lat="27.806337" lon="104.340264"><ele>1892.8983</ele><time>2026-07-13T19:25:16.000Z</time></trkpt>
        <trkpt lat="27.806255" lon="104.340253"><ele>1893.2463</ele><time>2026-07-13T19:25:18.000Z</time></trkpt>
        <trkpt lat="27.806175" lon="104.340241"><ele>1893.655</ele><time>2026-07-13T19:25:20.000Z</time></trkpt>
        <trkpt lat="27.806096" lon="104.340231"><ele>1893.9436</ele><time>2026-07-13T19:25:22.000Z</time></trkpt>
        <trkpt lat="27.806014" lon="104.340218"><ele>1894.0657</ele><time>2026-07-13T19:25:24.000Z</time></trkpt>
        <trkpt lat="27.805933" lon="104.340215"><ele>1894.4293</ele><time>2026-07-13T19:25:26.000Z</time></trkpt>
        <trkpt lat="27.805858" lon="104.340229"><ele>1894.6096</ele><time>2026-07-13T19:25:28.000Z</time></trkpt>
        <trkpt lat="27.805786" lon="104.340255"><ele>1894.626</ele><time>2026-07-13T19:25:30.000Z</time></trkpt>
        <trkpt lat="27.805715" lon="104.340287"><ele>1894.8141</ele><time>2026-07-13T19:25:32.000Z</time></trkpt>
        <trkpt lat="27.805638" lon="104.340329"><ele>1894.9434</ele><time>2026-07-13T19:25:34.000Z</time></trkpt>
        <trkpt lat="27.805567" lon="104.340371"><ele>1894.8517</ele><time>2026-07-13T19:25:36.000Z</time></trkpt>
        <trkpt lat="27.805517" lon="104.3404"><ele>1894.8798</ele><time>2026-07-13T19:25:38.000Z</time></trkpt>
        <trkpt lat="27.805474" lon="104.340442"><ele>1895.1112</ele><time>2026-07-13T19:25:41.000Z</time></trkpt>
        <trkpt lat="27.805432" lon="104.34047"><ele>1896.2751</ele><time>2026-07-13T19:26:35.000Z</time></trkpt>
        <trkpt lat="27.805408" lon="104.340511"><ele>1897.7491</ele><time>2026-07-13T19:28:42.000Z</time></trkpt>
        <trkpt lat="27.805438" lon="104.34047"><ele>1898.7905</ele><time>2026-07-13T19:29:54.000Z</time></trkpt>
        <trkpt lat="27.805442" lon="104.34052"><ele>1897.2783</ele><time>2026-07-13T19:31:10.000Z</time></trkpt>
        <trkpt lat="27.805439" lon="104.340569"><ele>1899.0352</ele><time>2026-07-13T19:31:34.000Z</time></trkpt>
        <trkpt lat="27.80545" lon="104.340615"><ele>1900.8959</ele><time>2026-07-13T19:31:56.000Z</time></trkpt>
        <trkpt lat="27.805457" lon="104.340668"><ele>1902.6052</ele><time>2026-07-13T19:32:06.000Z</time></trkpt>
        <trkpt lat="27.805469" lon="104.340715"><ele>1905.3174</ele><time>2026-07-13T19:32:28.000Z</time></trkpt>
        <trkpt lat="27.805475" lon="104.340766"><ele>1906.5886</ele><time>2026-07-13T19:33:06.000Z</time></trkpt>
        <trkpt lat="27.805478" lon="104.340819"><ele>1906.8969</ele><time>2026-07-13T19:33:19.000Z</time></trkpt>
        <trkpt lat="27.805471" lon="104.34087"><ele>1907.6726</ele><time>2026-07-13T19:33:25.000Z</time></trkpt>
        <trkpt lat="27.805466" lon="104.34092"><ele>1908.3073</ele><time>2026-07-13T19:33:37.000Z</time></trkpt>
        <trkpt lat="27.805489" lon="104.340968"><ele>1908.332</ele><time>2026-07-13T19:33:49.000Z</time></trkpt>
        <trkpt lat="27.805503" lon="104.34102"><ele>1908.9216</ele><time>2026-07-13T19:33:59.000Z</time></trkpt>
        <trkpt lat="27.805537" lon="104.341058"><ele>1911.2317</ele><time>2026-07-13T19:34:14.000Z</time></trkpt>
        <trkpt lat="27.805566" lon="104.341099"><ele>1913.0228</ele><time>2026-07-13T19:34:24.000Z</time></trkpt>
        <trkpt lat="27.805603" lon="104.341128"><ele>1915.7198</ele><time>2026-07-13T19:34:39.000Z</time></trkpt>
        <trkpt lat="27.805567" lon="104.341162"><ele>1917.6521</ele><time>2026-07-13T19:39:02.000Z</time></trkpt>
        <trkpt lat="27.805519" lon="104.341166"><ele>1917.998</ele><time>2026-07-13T19:39:17.000Z</time></trkpt>
        <trkpt lat="27.805567" lon="104.341161"><ele>1919.4698</ele><time>2026-07-13T19:40:30.000Z</time></trkpt>
        <trkpt lat="27.805607" lon="104.341137"><ele>1918.4862</ele><time>2026-07-13T19:40:41.000Z</time></trkpt>
        <trkpt lat="27.805572" lon="104.341173"><ele>1919.1039</ele><time>2026-07-13T19:41:23.000Z</time></trkpt>
        <trkpt lat="27.805529" lon="104.341162"><ele>1918.6495</ele><time>2026-07-13T19:41:33.000Z</time></trkpt>
        <trkpt lat="27.805486" lon="104.341151"><ele>1920.2222</ele><time>2026-07-13T19:42:15.000Z</time></trkpt>
        <trkpt lat="27.805444" lon="104.341128"><ele>1918.8508</ele><time>2026-07-13T19:42:27.000Z</time></trkpt>
        <trkpt lat="27.80541" lon="104.341094"><ele>1918.187</ele><time>2026-07-13T19:42:45.000Z</time></trkpt>
        <trkpt lat="27.805411" lon="104.34104"><ele>1917.164</ele><time>2026-07-13T19:42:58.000Z</time></trkpt>
        <trkpt lat="27.805393" lon="104.340994"><ele>1916.1472</ele><time>2026-07-13T19:43:12.000Z</time></trkpt>
        <trkpt lat="27.80537" lon="104.340951"><ele>1915.0323</ele><time>2026-07-13T19:43:25.000Z</time></trkpt>
        <trkpt lat="27.805343" lon="104.34091"><ele>1913.5955</ele><time>2026-07-13T19:43:53.000Z</time></trkpt>
        <trkpt lat="27.805306" lon="104.340888"><ele>1911.6162</ele><time>2026-07-13T19:44:08.000Z</time></trkpt>
        <trkpt lat="27.805266" lon="104.340858"><ele>1910.6156</ele><time>2026-07-13T19:44:18.000Z</time></trkpt>
        <trkpt lat="27.805256" lon="104.340808"><ele>1909.6975</ele><time>2026-07-13T19:44:30.000Z</time></trkpt>
        <trkpt lat="27.805259" lon="104.340762"><ele>1907.5139</ele><time>2026-07-13T19:44:53.000Z</time></trkpt>
        <trkpt lat="27.805238" lon="104.340719"><ele>1906.04</ele><time>2026-07-13T19:45:09.000Z</time></trkpt>
        <trkpt lat="27.805239" lon="104.340667"><ele>1903.504</ele><time>2026-07-13T19:46:04.000Z</time></trkpt>
        <trkpt lat="27.805275" lon="104.340627"><ele>1902.5286</ele><time>2026-07-13T19:46:10.000Z</time></trkpt>
        <trkpt lat="27.805312" lon="104.340594"><ele>1902.1594</ele><time>2026-07-13T19:46:15.000Z</time></trkpt>
        <trkpt lat="27.805351" lon="104.340554"><ele>1902.0732</ele><time>2026-07-13T19:46:22.000Z</time></trkpt>
        <trkpt lat="27.805382" lon="104.340517"><ele>1902.0037</ele><time>2026-07-13T19:46:28.000Z</time></trkpt>
        <trkpt lat="27.805417" lon="104.340481"><ele>1901.4293</ele><time>2026-07-13T19:46:35.000Z</time></trkpt>
        <trkpt lat="27.805454" lon="104.340446"><ele>1900.7477</ele><time>2026-07-13T19:46:41.000Z</time></trkpt>
        <trkpt lat="27.805404" lon="104.340501"><ele>1899.9469</ele><time>2026-07-13T19:48:02.000Z</time></trkpt>
        <trkpt lat="27.805342" lon="104.340539"><ele>1900.0125</ele><time>2026-07-13T19:48:04.000Z</time></trkpt>
        <trkpt lat="27.805292" lon="104.340597"><ele>1900.2006</ele><time>2026-07-13T19:48:06.000Z</time></trkpt>
        <trkpt lat="27.805265" lon="104.340642"><ele>1900.1522</ele><time>2026-07-13T19:48:08.000Z</time></trkpt>
        <trkpt lat="27.805217" lon="104.340707"><ele>1900.2795</ele><time>2026-07-13T19:48:10.000Z</time></trkpt>
        <trkpt lat="27.805184" lon="104.340755"><ele>1900.2515</ele><time>2026-07-13T19:48:11.000Z</time></trkpt>
        <trkpt lat="27.805156" lon="104.340804"><ele>1900.2944</ele><time>2026-07-13T19:48:12.000Z</time></trkpt>
        <trkpt lat="27.805129" lon="104.340897"><ele>1900.1763</ele><time>2026-07-13T19:48:14.000Z</time></trkpt>
        <trkpt lat="27.805144" lon="104.340963"><ele>1899.8733</ele><time>2026-07-13T19:48:15.000Z</time></trkpt>
        <trkpt lat="27.805167" lon="104.34102"><ele>1899.7377</ele><time>2026-07-13T19:48:16.000Z</time></trkpt>
        <trkpt lat="27.80519" lon="104.34107"><ele>1899.7771</ele><time>2026-07-13T19:48:17.000Z</time></trkpt>
        <trkpt lat="27.80521" lon="104.341119"><ele>1899.8936</ele><time>2026-07-13T19:48:18.000Z</time></trkpt>
        <trkpt lat="27.805234" lon="104.341214"><ele>1900.0302</ele><time>2026-07-13T19:48:20.000Z</time></trkpt>
        <trkpt lat="27.805256" lon="104.341311"><ele>1900.1937</ele><time>2026-07-13T19:48:22.000Z</time></trkpt>
        <trkpt lat="27.805269" lon="104.34141"><ele>1900.3088</ele><time>2026-07-13T19:48:24.000Z</time></trkpt>
        <trkpt lat="27.805272" lon="104.34151"><ele>1900.5074</ele><time>2026-07-13T19:48:26.000Z</time></trkpt>
        <trkpt lat="27.805267" lon="104.341563"><ele>1900.7357</ele><time>2026-07-13T19:48:27.000Z</time></trkpt>
        <trkpt lat="27.80526" lon="104.341615"><ele>1900.9564</ele><time>2026-07-13T19:48:28.000Z</time></trkpt>
        <trkpt lat="27.805253" lon="104.341717"><ele>1901.4585</ele><time>2026-07-13T19:48:30.000Z</time></trkpt>
        <trkpt lat="27.805249" lon="104.341773"><ele>1901.7244</ele><time>2026-07-13T19:48:31.000Z</time></trkpt>
        <trkpt lat="27.805245" lon="104.341832"><ele>1901.8239</ele><time>2026-07-13T19:48:32.000Z</time></trkpt>
        <trkpt lat="27.805249" lon="104.341889"><ele>1902.0607</ele><time>2026-07-13T19:48:33.000Z</time></trkpt>
        <trkpt lat="27.805263" lon="104.341944"><ele>1902.5339</ele><time>2026-07-13T19:48:34.000Z</time></trkpt>
        <trkpt lat="27.805283" lon="104.341996"><ele>1902.7184</ele><time>2026-07-13T19:48:35.000Z</time></trkpt>
        <trkpt lat="27.805305" lon="104.342045"><ele>1902.9736</ele><time>2026-07-13T19:48:36.000Z</time></trkpt>
        <trkpt lat="27.805331" lon="104.342094"><ele>1903.4701</ele><time>2026-07-13T19:48:37.000Z</time></trkpt>
        <trkpt lat="27.80536" lon="104.342139"><ele>1903.7101</ele><time>2026-07-13T19:48:38.000Z</time></trkpt>
        <trkpt lat="27.805388" lon="104.342184"><ele>1903.8918</ele><time>2026-07-13T19:48:39.000Z</time></trkpt>
        <trkpt lat="27.805411" lon="104.34223"><ele>1904.1266</ele><time>2026-07-13T19:48:40.000Z</time></trkpt>
        <trkpt lat="27.805432" lon="104.342276"><ele>1904.1836</ele><time>2026-07-13T19:48:41.000Z</time></trkpt>
        <trkpt lat="27.805461" lon="104.342368"><ele>1904.7559</ele><time>2026-07-13T19:48:43.000Z</time></trkpt>
        <trkpt lat="27.805482" lon="104.342462"><ele>1905.4596</ele><time>2026-07-13T19:48:45.000Z</time></trkpt>
        <trkpt lat="27.8055" lon="104.342562"><ele>1906.3036</ele><time>2026-07-13T19:48:47.000Z</time></trkpt>
        <trkpt lat="27.805506" lon="104.342616"><ele>1906.5138</ele><time>2026-07-13T19:48:48.000Z</time></trkpt>
        <trkpt lat="27.805513" lon="104.342714"><ele>1906.804</ele><time>2026-07-13T19:48:50.000Z</time></trkpt>
        <trkpt lat="27.805494" lon="104.342803"><ele>1907.2257</ele><time>2026-07-13T19:48:52.000Z</time></trkpt>
        <trkpt lat="27.805444" lon="104.342893"><ele>1907.4458</ele><time>2026-07-13T19:48:54.000Z</time></trkpt>
        <trkpt lat="27.805413" lon="104.342936"><ele>1907.5731</ele><time>2026-07-13T19:48:55.000Z</time></trkpt>
        <trkpt lat="27.805382" lon="104.342975"><ele>1907.7299</ele><time>2026-07-13T19:48:56.000Z</time></trkpt>
        <trkpt lat="27.805338" lon="104.343051"><ele>1908.2933</ele><time>2026-07-13T19:48:58.000Z</time></trkpt>
        <trkpt lat="27.805304" lon="104.34313"><ele>1908.7668</ele><time>2026-07-13T19:49:00.000Z</time></trkpt>
        <trkpt lat="27.805301" lon="104.343219"><ele>1909.1973</ele><time>2026-07-13T19:49:02.000Z</time></trkpt>
        <trkpt lat="27.805317" lon="104.343309"><ele>1909.6245</ele><time>2026-07-13T19:49:04.000Z</time></trkpt>
        <trkpt lat="27.805335" lon="104.343395"><ele>1909.9901</ele><time>2026-07-13T19:49:06.000Z</time></trkpt>
        <trkpt lat="27.805351" lon="104.343483"><ele>1910.236</ele><time>2026-07-13T19:49:08.000Z</time></trkpt>
        <trkpt lat="27.805368" lon="104.343578"><ele>1910.3177</ele><time>2026-07-13T19:49:10.000Z</time></trkpt>
        <trkpt lat="27.805377" lon="104.343631"><ele>1910.3142</ele><time>2026-07-13T19:49:11.000Z</time></trkpt>
        <trkpt lat="27.805398" lon="104.343723"><ele>1910.3826</ele><time>2026-07-13T19:49:13.000Z</time></trkpt>
        <trkpt lat="27.805421" lon="104.343797"><ele>1910.2098</ele><time>2026-07-13T19:49:15.000Z</time></trkpt>
        <trkpt lat="27.805436" lon="104.343874"><ele>1910.2214</ele><time>2026-07-13T19:49:17.000Z</time></trkpt>
        <trkpt lat="27.805443" lon="104.343963"><ele>1909.96</ele><time>2026-07-13T19:49:19.000Z</time></trkpt>
        <trkpt lat="27.805426" lon="104.344054"><ele>1909.7526</ele><time>2026-07-13T19:49:21.000Z</time></trkpt>
        <trkpt lat="27.805384" lon="104.344137"><ele>1909.7609</ele><time>2026-07-13T19:49:23.000Z</time></trkpt>
        <trkpt lat="27.80532" lon="104.3442"><ele>1909.4343</ele><time>2026-07-13T19:49:25.000Z</time></trkpt>
        <trkpt lat="27.805281" lon="104.344227"><ele>1909.315</ele><time>2026-07-13T19:49:26.000Z</time></trkpt>
        <trkpt lat="27.80524" lon="104.344252"><ele>1909.0656</ele><time>2026-07-13T19:49:27.000Z</time></trkpt>
        <trkpt lat="27.805199" lon="104.344275"><ele>1908.8885</ele><time>2026-07-13T19:49:28.000Z</time></trkpt>
        <trkpt lat="27.805127" lon="104.344309"><ele>1908.6129</ele><time>2026-07-13T19:49:30.000Z</time></trkpt>
        <trkpt lat="27.805057" lon="104.344343"><ele>1908.596</ele><time>2026-07-13T19:49:32.000Z</time></trkpt>
        <trkpt lat="27.804982" lon="104.34438"><ele>1908.461</ele><time>2026-07-13T19:49:34.000Z</time></trkpt>
        <trkpt lat="27.804921" lon="104.344413"><ele>1908.5786</ele><time>2026-07-13T19:49:36.000Z</time></trkpt>
        <trkpt lat="27.804873" lon="104.344452"><ele>1908.5076</ele><time>2026-07-13T19:49:38.000Z</time></trkpt>
        <trkpt lat="27.804829" lon="104.344502"><ele>1908.7612</ele><time>2026-07-13T19:49:40.000Z</time></trkpt>
        <trkpt lat="27.804795" lon="104.344566"><ele>1909.3138</ele><time>2026-07-13T19:49:42.000Z</time></trkpt>
        <trkpt lat="27.804775" lon="104.344633"><ele>1909.3856</ele><time>2026-07-13T19:49:44.000Z</time></trkpt>
        <trkpt lat="27.80477" lon="104.344705"><ele>1908.8378</ele><time>2026-07-13T19:49:46.000Z</time></trkpt>
        <trkpt lat="27.804776" lon="104.344777"><ele>1908.3848</ele><time>2026-07-13T19:49:48.000Z</time></trkpt>
        <trkpt lat="27.804794" lon="104.344848"><ele>1907.4647</ele><time>2026-07-13T19:49:50.000Z</time></trkpt>
        <trkpt lat="27.804819" lon="104.344921"><ele>1907.1237</ele><time>2026-07-13T19:49:52.000Z</time></trkpt>
        <trkpt lat="27.804835" lon="104.344992"><ele>1906.7614</ele><time>2026-07-13T19:49:54.000Z</time></trkpt>
        <trkpt lat="27.804852" lon="104.345064"><ele>1906.5668</ele><time>2026-07-13T19:49:56.000Z</time></trkpt>
        <trkpt lat="27.80487" lon="104.345139"><ele>1906.317</ele><time>2026-07-13T19:49:58.000Z</time></trkpt>
        <trkpt lat="27.804879" lon="104.345222"><ele>1905.6356</ele><time>2026-07-13T19:50:00.000Z</time></trkpt>
        <trkpt lat="27.804877" lon="104.345304"><ele>1905.9386</ele><time>2026-07-13T19:50:02.000Z</time></trkpt>
        <trkpt lat="27.804852" lon="104.345372"><ele>1905.8951</ele><time>2026-07-13T19:50:04.000Z</time></trkpt>
        <trkpt lat="27.804804" lon="104.345435"><ele>1905.7942</ele><time>2026-07-13T19:50:06.000Z</time></trkpt>
        <trkpt lat="27.804744" lon="104.345474"><ele>1905.482</ele><time>2026-07-13T19:50:08.000Z</time></trkpt>
        <trkpt lat="27.804677" lon="104.345491"><ele>1905.5553</ele><time>2026-07-13T19:50:10.000Z</time></trkpt>
        <trkpt lat="27.804605" lon="104.345478"><ele>1905.0376</ele><time>2026-07-13T19:50:12.000Z</time></trkpt>
        <trkpt lat="27.804541" lon="104.345447"><ele>1904.55</ele><time>2026-07-13T19:50:14.000Z</time></trkpt>
        <trkpt lat="27.804472" lon="104.345429"><ele>1904.2788</ele><time>2026-07-13T19:50:16.000Z</time></trkpt>
        <trkpt lat="27.804407" lon="104.345417"><ele>1903.7744</ele><time>2026-07-13T19:50:18.000Z</time></trkpt>
        <trkpt lat="27.804342" lon="104.345416"><ele>1903.5668</ele><time>2026-07-13T19:50:20.000Z</time></trkpt>
        <trkpt lat="27.804278" lon="104.345424"><ele>1903.4902</ele><time>2026-07-13T19:50:22.000Z</time></trkpt>
        <trkpt lat="27.804215" lon="104.345452"><ele>1903.4344</ele><time>2026-07-13T19:50:24.000Z</time></trkpt>
        <trkpt lat="27.804152" lon="104.345487"><ele>1902.9725</ele><time>2026-07-13T19:50:26.000Z</time></trkpt>
        <trkpt lat="27.804086" lon="104.345532"><ele>1902.4591</ele><time>2026-07-13T19:50:28.000Z</time></trkpt>
        <trkpt lat="27.804014" lon="104.345571"><ele>1901.2408</ele><time>2026-07-13T19:50:30.000Z</time></trkpt>
        <trkpt lat="27.803948" lon="104.345616"><ele>1900.4377</ele><time>2026-07-13T19:50:32.000Z</time></trkpt>
        <trkpt lat="27.803888" lon="104.345656"><ele>1899.8364</ele><time>2026-07-13T19:50:34.000Z</time></trkpt>
        <trkpt lat="27.803821" lon="104.345698"><ele>1899.4689</ele><time>2026-07-13T19:50:36.000Z</time></trkpt>
        <trkpt lat="27.803752" lon="104.345739"><ele>1898.9937</ele><time>2026-07-13T19:50:38.000Z</time></trkpt>
        <trkpt lat="27.803693" lon="104.34576"><ele>1898.5448</ele><time>2026-07-13T19:50:40.000Z</time></trkpt>
        <trkpt lat="27.803631" lon="104.34579"><ele>1898.4271</ele><time>2026-07-13T19:50:42.000Z</time></trkpt>
        <trkpt lat="27.803571" lon="104.345824"><ele>1898.0409</ele><time>2026-07-13T19:50:44.000Z</time></trkpt>
        <trkpt lat="27.803511" lon="104.345869"><ele>1898.0768</ele><time>2026-07-13T19:50:46.000Z</time></trkpt>
        <trkpt lat="27.803464" lon="104.345918"><ele>1897.8497</ele><time>2026-07-13T19:50:48.000Z</time></trkpt>
        <trkpt lat="27.803417" lon="104.345972"><ele>1897.6588</ele><time>2026-07-13T19:50:50.000Z</time></trkpt>
        <trkpt lat="27.803372" lon="104.34602"><ele>1897.212</ele><time>2026-07-13T19:50:52.000Z</time></trkpt>
        <trkpt lat="27.803324" lon="104.346063"><ele>1896.6671</ele><time>2026-07-13T19:50:54.000Z</time></trkpt>
        <trkpt lat="27.803273" lon="104.346099"><ele>1896.1859</ele><time>2026-07-13T19:50:56.000Z</time></trkpt>
        <trkpt lat="27.803219" lon="104.346124"><ele>1895.906</ele><time>2026-07-13T19:50:58.000Z</time></trkpt>
        <trkpt lat="27.80317" lon="104.346135"><ele>1895.7139</ele><time>2026-07-13T19:51:00.000Z</time></trkpt>
        <trkpt lat="27.803125" lon="104.346138"><ele>1896.2562</ele><time>2026-07-13T19:51:33.000Z</time></trkpt>
        <trkpt lat="27.803076" lon="104.346126"><ele>1897.0787</ele><time>2026-07-13T19:51:40.000Z</time></trkpt>
        <trkpt lat="27.803026" lon="104.346107"><ele>1896.5809</ele><time>2026-07-13T19:51:47.000Z</time></trkpt>
        <trkpt lat="27.802999" lon="104.346066"><ele>1896.341</ele><time>2026-07-13T19:51:53.000Z</time></trkpt>
        <trkpt lat="27.802974" lon="104.346021"><ele>1895.9564</ele><time>2026-07-13T19:52:00.000Z</time></trkpt>
        <trkpt lat="27.802938" lon="104.345986"><ele>1895.4847</ele><time>2026-07-13T19:52:10.000Z</time></trkpt>
        <trkpt lat="27.802914" lon="104.345941"><ele>1895.9839</ele><time>2026-07-13T19:52:16.000Z</time></trkpt>
        <trkpt lat="27.802891" lon="104.345891"><ele>1896.7112</ele><time>2026-07-13T19:52:38.000Z</time></trkpt>
        <trkpt lat="27.802858" lon="104.345852"><ele>1897.0343</ele><time>2026-07-13T19:52:44.000Z</time></trkpt>
        <trkpt lat="27.802827" lon="104.345846"><ele>1900.6971</ele><time>2026-07-13T19:56:45.000Z</time></trkpt>
        <trkpt lat="27.802797" lon="104.345805"><ele>1901.2092</ele><time>2026-07-13T19:56:54.000Z</time></trkpt>
        <trkpt lat="27.802783" lon="104.345747"><ele>1901.6665</ele><time>2026-07-13T19:57:00.000Z</time></trkpt>
        <trkpt lat="27.80278" lon="104.345692"><ele>1901.4434</ele><time>2026-07-13T19:57:05.000Z</time></trkpt>
        <trkpt lat="27.802768" lon="104.345641"><ele>1901.7147</ele><time>2026-07-13T19:57:10.000Z</time></trkpt>
        <trkpt lat="27.802756" lon="104.34559"><ele>1902.3124</ele><time>2026-07-13T19:57:14.000Z</time></trkpt>
        <trkpt lat="27.802759" lon="104.345531"><ele>1902.6769</ele><time>2026-07-13T19:57:19.000Z</time></trkpt>
        <trkpt lat="27.802784" lon="104.345487"><ele>1903.1648</ele><time>2026-07-13T19:57:24.000Z</time></trkpt>
        <trkpt lat="27.802832" lon="104.345513"><ele>1904.056</ele><time>2026-07-13T19:57:29.000Z</time></trkpt>
        <trkpt lat="27.802854" lon="104.34556"><ele>1904.4965</ele><time>2026-07-13T19:57:34.000Z</time></trkpt>
        <trkpt lat="27.802864" lon="104.345615"><ele>1905.3188</ele><time>2026-07-13T19:57:41.000Z</time></trkpt>
        <trkpt lat="27.8029" lon="104.345581"><ele>1906.4569</ele><time>2026-07-13T19:57:52.000Z</time></trkpt>
        <trkpt lat="27.802892" lon="104.345527"><ele>1906.9</ele><time>2026-07-13T19:57:57.000Z</time></trkpt>
        <trkpt lat="27.802897" lon="104.345474"><ele>1906.7937</ele><time>2026-07-13T19:58:02.000Z</time></trkpt>
        <trkpt lat="27.802912" lon="104.345417"><ele>1907.0509</ele><time>2026-07-13T19:58:07.000Z</time></trkpt>
        <trkpt lat="27.802914" lon="104.345359"><ele>1907.8772</ele><time>2026-07-13T19:58:13.000Z</time></trkpt>
        <trkpt lat="27.802889" lon="104.345308"><ele>1908.0597</ele><time>2026-07-13T19:58:18.000Z</time></trkpt>
        <trkpt lat="27.802852" lon="104.345276"><ele>1908.6558</ele><time>2026-07-13T19:58:23.000Z</time></trkpt>
        <trkpt lat="27.802798" lon="104.345265"><ele>1909.1404</ele><time>2026-07-13T19:58:28.000Z</time></trkpt>
        <trkpt lat="27.802783" lon="104.345216"><ele>1908.5272</ele><time>2026-07-13T19:58:38.000Z</time></trkpt>
        <trkpt lat="27.802799" lon="104.345167"><ele>1909.0353</ele><time>2026-07-13T19:58:43.000Z</time></trkpt>
        <trkpt lat="27.802791" lon="104.345116"><ele>1909.4521</ele><time>2026-07-13T19:58:48.000Z</time></trkpt>
        <trkpt lat="27.802782" lon="104.34506"><ele>1909.9335</ele><time>2026-07-13T19:58:54.000Z</time></trkpt>
        <trkpt lat="27.80279" lon="104.345003"><ele>1911.1635</ele><time>2026-07-13T19:59:00.000Z</time></trkpt>
        <trkpt lat="27.802795" lon="104.34495"><ele>1912.7635</ele><time>2026-07-13T19:59:06.000Z</time></trkpt>
        <trkpt lat="27.802777" lon="104.344894"><ele>1913.8049</ele><time>2026-07-13T19:59:12.000Z</time></trkpt>
        <trkpt lat="27.802742" lon="104.344855"><ele>1915.1346</ele><time>2026-07-13T19:59:18.000Z</time></trkpt>
        <trkpt lat="27.802689" lon="104.34485"><ele>1915.6519</ele><time>2026-07-13T19:59:24.000Z</time></trkpt>
        <trkpt lat="27.802642" lon="104.344864"><ele>1916.0051</ele><time>2026-07-13T19:59:29.000Z</time></trkpt>
        <trkpt lat="27.802597" lon="104.344881"><ele>1916.5535</ele><time>2026-07-13T19:59:34.000Z</time></trkpt>
        <trkpt lat="27.802551" lon="104.344901"><ele>1917.1023</ele><time>2026-07-13T19:59:39.000Z</time></trkpt>
        <trkpt lat="27.802509" lon="104.344927"><ele>1917.4587</ele><time>2026-07-13T19:59:44.000Z</time></trkpt>
        <trkpt lat="27.802474" lon="104.344967"><ele>1918.0402</ele><time>2026-07-13T19:59:49.000Z</time></trkpt>
        <trkpt lat="27.802437" lon="104.345004"><ele>1918.2645</ele><time>2026-07-13T19:59:54.000Z</time></trkpt>
        <trkpt lat="27.802407" lon="104.345042"><ele>1918.4285</ele><time>2026-07-13T19:59:59.000Z</time></trkpt>
        <trkpt lat="27.802375" lon="104.345078"><ele>1918.8649</ele><time>2026-07-13T20:00:05.000Z</time></trkpt>
        <trkpt lat="27.802343" lon="104.345041"><ele>1920.1097</ele><time>2026-07-13T20:00:15.000Z</time></trkpt>
        <trkpt lat="27.802367" lon="104.345"><ele>1921.4421</ele><time>2026-07-13T20:00:37.000Z</time></trkpt>
        <trkpt lat="27.802384" lon="104.344967"><ele>1925.0304</ele><time>2026-07-13T20:01:06.000Z</time></trkpt>
        <trkpt lat="27.802406" lon="104.34491"><ele>1925.0144</ele><time>2026-07-13T20:01:13.000Z</time></trkpt>
        <trkpt lat="27.802423" lon="104.344862"><ele>1925.4486</ele><time>2026-07-13T20:01:17.000Z</time></trkpt>
        <trkpt lat="27.802438" lon="104.34481"><ele>1925.5851</ele><time>2026-07-13T20:01:22.000Z</time></trkpt>
        <trkpt lat="27.802452" lon="104.344759"><ele>1925.3105</ele><time>2026-07-13T20:01:27.000Z</time></trkpt>
        <trkpt lat="27.802471" lon="104.344712"><ele>1925.6531</ele><time>2026-07-13T20:01:32.000Z</time></trkpt>
        <trkpt lat="27.802494" lon="104.344663"><ele>1926.6338</ele><time>2026-07-13T20:01:38.000Z</time></trkpt>
        <trkpt lat="27.802485" lon="104.344614"><ele>1928.6984</ele><time>2026-07-13T20:01:46.000Z</time></trkpt>
        <trkpt lat="27.802435" lon="104.344614"><ele>1929.6519</ele><time>2026-07-13T20:01:57.000Z</time></trkpt>
        <trkpt lat="27.802477" lon="104.344615"><ele>1931.3988</ele><time>2026-07-13T20:02:29.000Z</time></trkpt>
        <trkpt lat="27.8025" lon="104.344572"><ele>1930.5304</ele><time>2026-07-13T20:02:56.000Z</time></trkpt>
        <trkpt lat="27.802504" lon="104.34452"><ele>1930.9208</ele><time>2026-07-13T20:03:07.000Z</time></trkpt>
        <trkpt lat="27.802536" lon="104.344481"><ele>1931.7662</ele><time>2026-07-13T20:03:18.000Z</time></trkpt>
        <trkpt lat="27.802558" lon="104.34443"><ele>1932.2039</ele><time>2026-07-13T20:03:25.000Z</time></trkpt>
        <trkpt lat="27.802575" lon="104.344382"><ele>1932.6088</ele><time>2026-07-13T20:03:40.000Z</time></trkpt>
        <trkpt lat="27.8026" lon="104.344337"><ele>1933.1267</ele><time>2026-07-13T20:03:50.000Z</time></trkpt>
        <trkpt lat="27.802624" lon="104.344294"><ele>1934.2421</ele><time>2026-07-13T20:04:03.000Z</time></trkpt>
        <trkpt lat="27.80264" lon="104.344339"><ele>1931.692</ele><time>2026-07-13T20:12:13.000Z</time></trkpt>
        <trkpt lat="27.802644" lon="104.34439"><ele>1930.9094</ele><time>2026-07-13T20:12:27.000Z</time></trkpt>
        <trkpt lat="27.802603" lon="104.344415"><ele>1930.6005</ele><time>2026-07-13T20:12:39.000Z</time></trkpt>
        <trkpt lat="27.802574" lon="104.344458"><ele>1929.9995</ele><time>2026-07-13T20:12:50.000Z</time></trkpt>
        <trkpt lat="27.802547" lon="104.344502"><ele>1929.1383</ele><time>2026-07-13T20:13:04.000Z</time></trkpt>
        <trkpt lat="27.802523" lon="104.34455"><ele>1928.6671</ele><time>2026-07-13T20:13:55.000Z</time></trkpt>
        <trkpt lat="27.802506" lon="104.344599"><ele>1928.4144</ele><time>2026-07-13T20:14:05.000Z</time></trkpt>
        <trkpt lat="27.802516" lon="104.34465"><ele>1927.8169</ele><time>2026-07-13T20:14:14.000Z</time></trkpt>
        <trkpt lat="27.80248" lon="104.344693"><ele>1927.8813</ele><time>2026-07-13T20:14:21.000Z</time></trkpt>
        <trkpt lat="27.802459" lon="104.344742"><ele>1927.497</ele><time>2026-07-13T20:14:27.000Z</time></trkpt>
        <trkpt lat="27.802451" lon="104.344797"><ele>1926.5574</ele><time>2026-07-13T20:14:36.000Z</time></trkpt>
        <trkpt lat="27.802441" lon="104.344855"><ele>1924.801</ele><time>2026-07-13T20:14:43.000Z</time></trkpt>
        <trkpt lat="27.802423" lon="104.344905"><ele>1923.8656</ele><time>2026-07-13T20:14:49.000Z</time></trkpt>
        <trkpt lat="27.802396" lon="104.344951"><ele>1922.7372</ele><time>2026-07-13T20:14:55.000Z</time></trkpt>
        <trkpt lat="27.802381" lon="104.345005"><ele>1921.359</ele><time>2026-07-13T20:15:03.000Z</time></trkpt>
        <trkpt lat="27.802357" lon="104.345042"><ele>1918.3534</ele><time>2026-07-13T20:15:10.000Z</time></trkpt>
        <trkpt lat="27.8024" lon="104.345026"><ele>1917.449</ele><time>2026-07-13T20:15:40.000Z</time></trkpt>
        <trkpt lat="27.802444" lon="104.344994"><ele>1916.7797</ele><time>2026-07-13T20:15:47.000Z</time></trkpt>
        <trkpt lat="27.802481" lon="104.344955"><ele>1916.3606</ele><time>2026-07-13T20:15:53.000Z</time></trkpt>
        <trkpt lat="27.802513" lon="104.344917"><ele>1916.2969</ele><time>2026-07-13T20:15:58.000Z</time></trkpt>
        <trkpt lat="27.802558" lon="104.34489"><ele>1916.5225</ele><time>2026-07-13T20:16:04.000Z</time></trkpt>
        <trkpt lat="27.802601" lon="104.344873"><ele>1916.3075</ele><time>2026-07-13T20:16:10.000Z</time></trkpt>
        <trkpt lat="27.802646" lon="104.344865"><ele>1915.3741</ele><time>2026-07-13T20:16:17.000Z</time></trkpt>
        <trkpt lat="27.80269" lon="104.344848"><ele>1914.6641</ele><time>2026-07-13T20:16:23.000Z</time></trkpt>
        <trkpt lat="27.802738" lon="104.344842"><ele>1914.4363</ele><time>2026-07-13T20:16:30.000Z</time></trkpt>
        <trkpt lat="27.802767" lon="104.344884"><ele>1913.6455</ele><time>2026-07-13T20:16:37.000Z</time></trkpt>
        <trkpt lat="27.802784" lon="104.34494"><ele>1912.8616</ele><time>2026-07-13T20:16:43.000Z</time></trkpt>
        <trkpt lat="27.802789" lon="104.344993"><ele>1912.1469</ele><time>2026-07-13T20:16:48.000Z</time></trkpt>
        <trkpt lat="27.802788" lon="104.345044"><ele>1911.5405</ele><time>2026-07-13T20:16:54.000Z</time></trkpt>
        <trkpt lat="27.802786" lon="104.345096"><ele>1910.3967</ele><time>2026-07-13T20:17:01.000Z</time></trkpt>
        <trkpt lat="27.802798" lon="104.345156"><ele>1909.8749</ele><time>2026-07-13T20:17:08.000Z</time></trkpt>
        <trkpt lat="27.802809" lon="104.345208"><ele>1908.9065</ele><time>2026-07-13T20:17:16.000Z</time></trkpt>
        <trkpt lat="27.802804" lon="104.345263"><ele>1908.4794</ele><time>2026-07-13T20:17:22.000Z</time></trkpt>
        <trkpt lat="27.802858" lon="104.345276"><ele>1907.7434</ele><time>2026-07-13T20:17:27.000Z</time></trkpt>
        <trkpt lat="27.802902" lon="104.345302"><ele>1907.4391</ele><time>2026-07-13T20:17:33.000Z</time></trkpt>
        <trkpt lat="27.802925" lon="104.345347"><ele>1905.5842</ele><time>2026-07-13T20:17:40.000Z</time></trkpt>
        <trkpt lat="27.802936" lon="104.345396"><ele>1905.2554</ele><time>2026-07-13T20:17:45.000Z</time></trkpt>
        <trkpt lat="27.802924" lon="104.345447"><ele>1904.7576</ele><time>2026-07-13T20:17:51.000Z</time></trkpt>
        <trkpt lat="27.802914" lon="104.345506"><ele>1904.2821</ele><time>2026-07-13T20:17:57.000Z</time></trkpt>
        <trkpt lat="27.802916" lon="104.345563"><ele>1904.2664</ele><time>2026-07-13T20:18:03.000Z</time></trkpt>
        <trkpt lat="27.802903" lon="104.345612"><ele>1904.8657</ele><time>2026-07-13T20:18:10.000Z</time></trkpt>
        <trkpt lat="27.802854" lon="104.345606"><ele>1903.5873</ele><time>2026-07-13T20:18:19.000Z</time></trkpt>
        <trkpt lat="27.802847" lon="104.345552"><ele>1902.5139</ele><time>2026-07-13T20:18:25.000Z</time></trkpt>
        <trkpt lat="27.802831" lon="104.345501"><ele>1901.0621</ele><time>2026-07-13T20:18:31.000Z</time></trkpt>
        <trkpt lat="27.802787" lon="104.345483"><ele>1900.2385</ele><time>2026-07-13T20:18:38.000Z</time></trkpt>
        <trkpt lat="27.802767" lon="104.34553"><ele>1899.9417</ele><time>2026-07-13T20:18:43.000Z</time></trkpt>
        <trkpt lat="27.802766" lon="104.345581"><ele>1899.3707</ele><time>2026-07-13T20:18:48.000Z</time></trkpt>
        <trkpt lat="27.802782" lon="104.345634"><ele>1898.6296</ele><time>2026-07-13T20:18:54.000Z</time></trkpt>
        <trkpt lat="27.802801" lon="104.345688"><ele>1898.0559</ele><time>2026-07-13T20:19:01.000Z</time></trkpt>
        <trkpt lat="27.802799" lon="104.345741"><ele>1898.0887</ele><time>2026-07-13T20:19:06.000Z</time></trkpt>
        <trkpt lat="27.80281" lon="104.345793"><ele>1897.381</ele><time>2026-07-13T20:19:14.000Z</time></trkpt>
        <trkpt lat="27.802846" lon="104.345821"><ele>1895.6145</ele><time>2026-07-13T20:20:26.000Z</time></trkpt>
        <trkpt lat="27.802876" lon="104.345863"><ele>1895.3129</ele><time>2026-07-13T20:20:31.000Z</time></trkpt>
        <trkpt lat="27.802905" lon="104.345906"><ele>1895.0826</ele><time>2026-07-13T20:20:37.000Z</time></trkpt>
        <trkpt lat="27.802933" lon="104.345953"><ele>1894.3763</ele><time>2026-07-13T20:20:44.000Z</time></trkpt>
        <trkpt lat="27.802965" lon="104.345987"><ele>1893.3213</ele><time>2026-07-13T20:20:51.000Z</time></trkpt>
        <trkpt lat="27.803004" lon="104.346025"><ele>1892.2682</ele><time>2026-07-13T20:20:57.000Z</time></trkpt>
        <trkpt lat="27.80303" lon="104.346065"><ele>1891.2565</ele><time>2026-07-13T20:21:04.000Z</time></trkpt>
        <trkpt lat="27.80307" lon="104.346089"><ele>1890.3666</ele><time>2026-07-13T20:21:11.000Z</time></trkpt>
        <trkpt lat="27.803113" lon="104.346098"><ele>1888.5161</ele><time>2026-07-13T20:21:19.000Z</time></trkpt>
        <trkpt lat="27.803055" lon="104.346142"><ele>1886.9344</ele><time>2026-07-13T20:37:37.000Z</time></trkpt>
        <trkpt lat="27.80299" lon="104.346157"><ele>1886.8287</ele><time>2026-07-13T20:37:39.000Z</time></trkpt>
        <trkpt lat="27.802945" lon="104.34617"><ele>1886.8262</ele><time>2026-07-13T20:37:40.000Z</time></trkpt>
        <trkpt lat="27.802867" lon="104.346191"><ele>1886.8563</ele><time>2026-07-13T20:37:42.000Z</time></trkpt>
        <trkpt lat="27.802779" lon="104.346211"><ele>1886.7133</ele><time>2026-07-13T20:37:44.000Z</time></trkpt>
        <trkpt lat="27.802708" lon="104.346228"><ele>1886.5485</ele><time>2026-07-13T20:37:46.000Z</time></trkpt>
        <trkpt lat="27.802612" lon="104.346277"><ele>1888.7356</ele><time>2026-07-13T20:37:48.000Z</time></trkpt>
        <trkpt lat="27.802545" lon="104.346295"><ele>1888.6068</ele><time>2026-07-13T20:37:50.000Z</time></trkpt>
        <trkpt lat="27.802478" lon="104.346316"><ele>1888.4445</ele><time>2026-07-13T20:37:52.000Z</time></trkpt>
        <trkpt lat="27.802421" lon="104.346341"><ele>1887.9758</ele><time>2026-07-13T20:37:54.000Z</time></trkpt>
        <trkpt lat="27.802357" lon="104.346383"><ele>1887.516</ele><time>2026-07-13T20:37:56.000Z</time></trkpt>
        <trkpt lat="27.80229" lon="104.346445"><ele>1887.4193</ele><time>2026-07-13T20:37:58.000Z</time></trkpt>
        <trkpt lat="27.802237" lon="104.346503"><ele>1886.9269</ele><time>2026-07-13T20:38:00.000Z</time></trkpt>
        <trkpt lat="27.802194" lon="104.346552"><ele>1886.4432</ele><time>2026-07-13T20:38:02.000Z</time></trkpt>
        <trkpt lat="27.802154" lon="104.346616"><ele>1886.4493</ele><time>2026-07-13T20:38:04.000Z</time></trkpt>
        <trkpt lat="27.802117" lon="104.346688"><ele>1885.9951</ele><time>2026-07-13T20:38:06.000Z</time></trkpt>
        <trkpt lat="27.802089" lon="104.346764"><ele>1885.4417</ele><time>2026-07-13T20:38:08.000Z</time></trkpt>
        <trkpt lat="27.802061" lon="104.346837"><ele>1885.144</ele><time>2026-07-13T20:38:10.000Z</time></trkpt>
        <trkpt lat="27.802037" lon="104.346914"><ele>1884.7775</ele><time>2026-07-13T20:38:12.000Z</time></trkpt>
        <trkpt lat="27.802025" lon="104.346995"><ele>1884.6177</ele><time>2026-07-13T20:38:14.000Z</time></trkpt>
        <trkpt lat="27.802013" lon="104.347075"><ele>1884.2299</ele><time>2026-07-13T20:38:16.000Z</time></trkpt>
        <trkpt lat="27.801995" lon="104.347159"><ele>1883.8563</ele><time>2026-07-13T20:38:18.000Z</time></trkpt>
        <trkpt lat="27.801972" lon="104.347245"><ele>1883.2843</ele><time>2026-07-13T20:38:20.000Z</time></trkpt>
        <trkpt lat="27.801945" lon="104.347313"><ele>1882.9448</ele><time>2026-07-13T20:38:22.000Z</time></trkpt>
        <trkpt lat="27.80191" lon="104.347384"><ele>1882.7793</ele><time>2026-07-13T20:38:24.000Z</time></trkpt>
        <trkpt lat="27.801874" lon="104.347457"><ele>1882.6033</ele><time>2026-07-13T20:38:26.000Z</time></trkpt>
        <trkpt lat="27.801832" lon="104.347523"><ele>1882.4058</ele><time>2026-07-13T20:38:28.000Z</time></trkpt>
        <trkpt lat="27.801784" lon="104.347589"><ele>1881.9974</ele><time>2026-07-13T20:38:30.000Z</time></trkpt>
        <trkpt lat="27.801726" lon="104.347655"><ele>1881.6598</ele><time>2026-07-13T20:38:32.000Z</time></trkpt>
        <trkpt lat="27.801673" lon="104.347725"><ele>1881.1534</ele><time>2026-07-13T20:38:34.000Z</time></trkpt>
        <trkpt lat="27.80162" lon="104.347801"><ele>1880.6543</ele><time>2026-07-13T20:38:36.000Z</time></trkpt>
        <trkpt lat="27.801575" lon="104.347877"><ele>1880.392</ele><time>2026-07-13T20:38:38.000Z</time></trkpt>
        <trkpt lat="27.801539" lon="104.347956"><ele>1880.0625</ele><time>2026-07-13T20:38:40.000Z</time></trkpt>
        <trkpt lat="27.801505" lon="104.348034"><ele>1879.773</ele><time>2026-07-13T20:38:42.000Z</time></trkpt>
        <trkpt lat="27.801468" lon="104.348105"><ele>1879.6052</ele><time>2026-07-13T20:38:44.000Z</time></trkpt>
        <trkpt lat="27.801412" lon="104.348167"><ele>1879.1864</ele><time>2026-07-13T20:38:46.000Z</time></trkpt>
        <trkpt lat="27.801353" lon="104.348212"><ele>1879.1205</ele><time>2026-07-13T20:38:48.000Z</time></trkpt>
        <trkpt lat="27.801307" lon="104.348225"><ele>1878.7874</ele><time>2026-07-13T20:38:49.000Z</time></trkpt>
        <trkpt lat="27.801253" lon="104.348232"><ele>1878.5316</ele><time>2026-07-13T20:38:50.000Z</time></trkpt>
        <trkpt lat="27.8012" lon="104.348234"><ele>1878.3215</ele><time>2026-07-13T20:38:51.000Z</time></trkpt>
        <trkpt lat="27.801147" lon="104.348233"><ele>1878.1462</ele><time>2026-07-13T20:38:52.000Z</time></trkpt>
        <trkpt lat="27.801097" lon="104.348225"><ele>1878.0581</ele><time>2026-07-13T20:38:53.000Z</time></trkpt>
        <trkpt lat="27.801051" lon="104.34822"><ele>1878.0312</ele><time>2026-07-13T20:38:54.000Z</time></trkpt>
        <trkpt lat="27.800972" lon="104.348219"><ele>1877.8462</ele><time>2026-07-13T20:38:56.000Z</time></trkpt>
        <trkpt lat="27.800902" lon="104.348234"><ele>1877.6368</ele><time>2026-07-13T20:38:58.000Z</time></trkpt>
        <trkpt lat="27.800835" lon="104.348275"><ele>1877.2263</ele><time>2026-07-13T20:39:00.000Z</time></trkpt>
        <trkpt lat="27.800781" lon="104.34833"><ele>1876.9829</ele><time>2026-07-13T20:39:02.000Z</time></trkpt>
        <trkpt lat="27.800728" lon="104.348395"><ele>1876.7401</ele><time>2026-07-13T20:39:04.000Z</time></trkpt>
        <trkpt lat="27.800685" lon="104.348468"><ele>1876.5966</ele><time>2026-07-13T20:39:06.000Z</time></trkpt>
        <trkpt lat="27.800644" lon="104.348538"><ele>1876.2979</ele><time>2026-07-13T20:39:08.000Z</time></trkpt>
        <trkpt lat="27.800597" lon="104.348613"><ele>1876.02</ele><time>2026-07-13T20:39:10.000Z</time></trkpt>
        <trkpt lat="27.800551" lon="104.348688"><ele>1875.7365</ele><time>2026-07-13T20:39:12.000Z</time></trkpt>
        <trkpt lat="27.800512" lon="104.348764"><ele>1874.6836</ele><time>2026-07-13T20:39:14.000Z</time></trkpt>
        <trkpt lat="27.800506" lon="104.348847"><ele>1873.7621</ele><time>2026-07-13T20:39:16.000Z</time></trkpt>
        <trkpt lat="27.800532" lon="104.348946"><ele>1873.4905</ele><time>2026-07-13T20:39:18.000Z</time></trkpt>
        <trkpt lat="27.800576" lon="104.348998"><ele>1873.2092</ele><time>2026-07-13T20:39:19.000Z</time></trkpt>
        <trkpt lat="27.800641" lon="104.349088"><ele>1873.059</ele><time>2026-07-13T20:39:21.000Z</time></trkpt>
        <trkpt lat="27.800679" lon="104.349173"><ele>1872.744</ele><time>2026-07-13T20:39:23.000Z</time></trkpt>
        <trkpt lat="27.800718" lon="104.349253"><ele>1872.8484</ele><time>2026-07-13T20:39:25.000Z</time></trkpt>
        <trkpt lat="27.800754" lon="104.34933"><ele>1872.6167</ele><time>2026-07-13T20:39:27.000Z</time></trkpt>
        <trkpt lat="27.800783" lon="104.349413"><ele>1872.1816</ele><time>2026-07-13T20:39:29.000Z</time></trkpt>
        <trkpt lat="27.800813" lon="104.349493"><ele>1871.602</ele><time>2026-07-13T20:39:31.000Z</time></trkpt>
        <trkpt lat="27.800839" lon="104.34957"><ele>1871.1671</ele><time>2026-07-13T20:39:33.000Z</time></trkpt>
        <trkpt lat="27.800862" lon="104.349646"><ele>1870.589</ele><time>2026-07-13T20:39:35.000Z</time></trkpt>
        <trkpt lat="27.800889" lon="104.349725"><ele>1869.9454</ele><time>2026-07-13T20:39:37.000Z</time></trkpt>
        <trkpt lat="27.800924" lon="104.349799"><ele>1869.5441</ele><time>2026-07-13T20:39:39.000Z</time></trkpt>
        <trkpt lat="27.80096" lon="104.349875"><ele>1868.869</ele><time>2026-07-13T20:39:41.000Z</time></trkpt>
        <trkpt lat="27.801001" lon="104.349935"><ele>1868.3335</ele><time>2026-07-13T20:39:43.000Z</time></trkpt>
        <trkpt lat="27.801056" lon="104.349981"><ele>1867.6998</ele><time>2026-07-13T20:39:45.000Z</time></trkpt>
        <trkpt lat="27.801117" lon="104.350008"><ele>1866.9181</ele><time>2026-07-13T20:39:47.000Z</time></trkpt>
        <trkpt lat="27.801175" lon="104.350017"><ele>1866.6526</ele><time>2026-07-13T20:39:49.000Z</time></trkpt>
        <trkpt lat="27.801223" lon="104.350043"><ele>1866.4352</ele><time>2026-07-13T20:39:52.000Z</time></trkpt>
        <trkpt lat="27.801196" lon="104.350001"><ele>1864.507</ele><time>2026-07-13T20:39:59.000Z</time></trkpt>
        <trkpt lat="27.801161" lon="104.349969"><ele>1864.019</ele><time>2026-07-13T20:40:06.000Z</time></trkpt>
        <trkpt lat="27.801188" lon="104.350006"><ele>1862.3254</ele><time>2026-07-13T20:40:48.000Z</time></trkpt>
        <trkpt lat="27.801209" lon="104.35005"><ele>1861.6477</ele><time>2026-07-13T20:41:00.000Z</time></trkpt>
        <trkpt lat="27.801229" lon="104.350113"><ele>1861.4235</ele><time>2026-07-13T20:41:02.000Z</time></trkpt>
        <trkpt lat="27.801244" lon="104.35019"><ele>1861.3231</ele><time>2026-07-13T20:41:04.000Z</time></trkpt>
        <trkpt lat="27.801253" lon="104.350251"><ele>1861.5096</ele><time>2026-07-13T20:41:06.000Z</time></trkpt>
        <trkpt lat="27.801279" lon="104.350302"><ele>1861.559</ele><time>2026-07-13T20:41:10.000Z</time></trkpt>
        <trkpt lat="27.801326" lon="104.35031"><ele>1861.3613</ele><time>2026-07-13T20:41:12.000Z</time></trkpt>
        <trkpt lat="27.801392" lon="104.350321"><ele>1861.2653</ele><time>2026-07-13T20:41:14.000Z</time></trkpt>
        <trkpt lat="27.801453" lon="104.350326"><ele>1861.1224</ele><time>2026-07-13T20:41:16.000Z</time></trkpt>
        <trkpt lat="27.801507" lon="104.350338"><ele>1861.1783</ele><time>2026-07-13T20:41:19.000Z</time></trkpt>
        <trkpt lat="27.801557" lon="104.350339"><ele>1861.3434</ele><time>2026-07-13T20:41:24.000Z</time></trkpt>
        <trkpt lat="27.801612" lon="104.350356"><ele>1861.4486</ele><time>2026-07-13T20:41:27.000Z</time></trkpt>
        <trkpt lat="27.801666" lon="104.350376"><ele>1861.7909</ele><time>2026-07-13T20:41:30.000Z</time></trkpt>
        <trkpt lat="27.801712" lon="104.350385"><ele>1861.9413</ele><time>2026-07-13T20:42:34.000Z</time></trkpt>
        <trkpt lat="27.801782" lon="104.350422"><ele>1861.8788</ele><time>2026-07-13T20:42:38.000Z</time></trkpt>
        <trkpt lat="27.801846" lon="104.350466"><ele>1861.7125</ele><time>2026-07-13T20:42:40.000Z</time></trkpt>
        <trkpt lat="27.801885" lon="104.35049"><ele>1861.5244</ele><time>2026-07-13T20:42:42.000Z</time></trkpt>
        <trkpt lat="27.80197" lon="104.350517"><ele>1861.3597</ele><time>2026-07-13T20:42:44.000Z</time></trkpt>
        <trkpt lat="27.802034" lon="104.350534"><ele>1861.3081</ele><time>2026-07-13T20:42:45.000Z</time></trkpt>
        <trkpt lat="27.802094" lon="104.350543"><ele>1861.1737</ele><time>2026-07-13T20:42:46.000Z</time></trkpt>
        <trkpt lat="27.802143" lon="104.350547"><ele>1861.035</ele><time>2026-07-13T20:42:47.000Z</time></trkpt>
        <trkpt lat="27.802195" lon="104.350548"><ele>1860.8578</ele><time>2026-07-13T20:42:48.000Z</time></trkpt>
        <trkpt lat="27.802249" lon="104.350547"><ele>1860.6176</ele><time>2026-07-13T20:42:49.000Z</time></trkpt>
        <trkpt lat="27.802306" lon="104.350541"><ele>1860.4153</ele><time>2026-07-13T20:42:50.000Z</time></trkpt>
        <trkpt lat="27.802359" lon="104.350533"><ele>1860.288</ele><time>2026-07-13T20:42:51.000Z</time></trkpt>
        <trkpt lat="27.802421" lon="104.350515"><ele>1860.0009</ele><time>2026-07-13T20:42:52.000Z</time></trkpt>
        <trkpt lat="27.80248" lon="104.350483"><ele>1859.8998</ele><time>2026-07-13T20:42:53.000Z</time></trkpt>
        <trkpt lat="27.802539" lon="104.350453"><ele>1859.8215</ele><time>2026-07-13T20:42:54.000Z</time></trkpt>
        <trkpt lat="27.802594" lon="104.350397"><ele>1859.8506</ele><time>2026-07-13T20:42:55.000Z</time></trkpt>
        <trkpt lat="27.802647" lon="104.350328"><ele>1860.0283</ele><time>2026-07-13T20:42:56.000Z</time></trkpt>
        <trkpt lat="27.802697" lon="104.350274"><ele>1860.1466</ele><time>2026-07-13T20:42:57.000Z</time></trkpt>
        <trkpt lat="27.80275" lon="104.350219"><ele>1860.0461</ele><time>2026-07-13T20:42:58.000Z</time></trkpt>
        <trkpt lat="27.802804" lon="104.350169"><ele>1859.923</ele><time>2026-07-13T20:42:59.000Z</time></trkpt>
        <trkpt lat="27.802861" lon="104.350121"><ele>1859.7043</ele><time>2026-07-13T20:43:00.000Z</time></trkpt>
        <trkpt lat="27.802916" lon="104.350078"><ele>1859.5765</ele><time>2026-07-13T20:43:01.000Z</time></trkpt>
        <trkpt lat="27.802973" lon="104.350034"><ele>1859.4232</ele><time>2026-07-13T20:43:02.000Z</time></trkpt>
        <trkpt lat="27.803034" lon="104.35"><ele>1859.2518</ele><time>2026-07-13T20:43:03.000Z</time></trkpt>
        <trkpt lat="27.803094" lon="104.349973"><ele>1859.0631</ele><time>2026-07-13T20:43:04.000Z</time></trkpt>
        <trkpt lat="27.803152" lon="104.349957"><ele>1858.9619</ele><time>2026-07-13T20:43:05.000Z</time></trkpt>
        <trkpt lat="27.803212" lon="104.34995"><ele>1858.8882</ele><time>2026-07-13T20:43:06.000Z</time></trkpt>
        <trkpt lat="27.803272" lon="104.349955"><ele>1858.8623</ele><time>2026-07-13T20:43:07.000Z</time></trkpt>
        <trkpt lat="27.803332" lon="104.349995"><ele>1858.6647</ele><time>2026-07-13T20:43:08.000Z</time></trkpt>
        <trkpt lat="27.803385" lon="104.350042"><ele>1858.6713</ele><time>2026-07-13T20:43:09.000Z</time></trkpt>
        <trkpt lat="27.803428" lon="104.350103"><ele>1858.7825</ele><time>2026-07-13T20:43:10.000Z</time></trkpt>
        <trkpt lat="27.803461" lon="104.350178"><ele>1858.8112</ele><time>2026-07-13T20:43:11.000Z</time></trkpt>
        <trkpt lat="27.803489" lon="104.350254"><ele>1858.7799</ele><time>2026-07-13T20:43:12.000Z</time></trkpt>
        <trkpt lat="27.803499" lon="104.350326"><ele>1858.7864</ele><time>2026-07-13T20:43:13.000Z</time></trkpt>
        <trkpt lat="27.803485" lon="104.350401"><ele>1858.7894</ele><time>2026-07-13T20:43:14.000Z</time></trkpt>
        <trkpt lat="27.803469" lon="104.350479"><ele>1858.8641</ele><time>2026-07-13T20:43:15.000Z</time></trkpt>
        <trkpt lat="27.803458" lon="104.350553"><ele>1859.0103</ele><time>2026-07-13T20:43:16.000Z</time></trkpt>
        <trkpt lat="27.80345" lon="104.350627"><ele>1859.0676</ele><time>2026-07-13T20:43:17.000Z</time></trkpt>
        <trkpt lat="27.803452" lon="104.3507"><ele>1859.0172</ele><time>2026-07-13T20:43:18.000Z</time></trkpt>
        <trkpt lat="27.803466" lon="104.350766"><ele>1859.0216</ele><time>2026-07-13T20:43:19.000Z</time></trkpt>
        <trkpt lat="27.80349" lon="104.350829"><ele>1858.9272</ele><time>2026-07-13T20:43:20.000Z</time></trkpt>
        <trkpt lat="27.803524" lon="104.350891"><ele>1858.8235</ele><time>2026-07-13T20:43:21.000Z</time></trkpt>
        <trkpt lat="27.803551" lon="104.350961"><ele>1858.6531</ele><time>2026-07-13T20:43:22.000Z</time></trkpt>
        <trkpt lat="27.803566" lon="104.351036"><ele>1858.5682</ele><time>2026-07-13T20:43:23.000Z</time></trkpt>
        <trkpt lat="27.803565" lon="104.351111"><ele>1858.4626</ele><time>2026-07-13T20:43:24.000Z</time></trkpt>
        <trkpt lat="27.803541" lon="104.351187"><ele>1858.2734</ele><time>2026-07-13T20:43:25.000Z</time></trkpt>
        <trkpt lat="27.803506" lon="104.351255"><ele>1858.0514</ele><time>2026-07-13T20:43:26.000Z</time></trkpt>
        <trkpt lat="27.803474" lon="104.351318"><ele>1857.8434</ele><time>2026-07-13T20:43:27.000Z</time></trkpt>
        <trkpt lat="27.803443" lon="104.351378"><ele>1857.7767</ele><time>2026-07-13T20:43:28.000Z</time></trkpt>
        <trkpt lat="27.803417" lon="104.35144"><ele>1857.5261</ele><time>2026-07-13T20:43:29.000Z</time></trkpt>
        <trkpt lat="27.803397" lon="104.351504"><ele>1857.3992</ele><time>2026-07-13T20:43:30.000Z</time></trkpt>
        <trkpt lat="27.803382" lon="104.351568"><ele>1857.2269</ele><time>2026-07-13T20:43:31.000Z</time></trkpt>
        <trkpt lat="27.803376" lon="104.351632"><ele>1857.086</ele><time>2026-07-13T20:43:32.000Z</time></trkpt>
        <trkpt lat="27.803377" lon="104.351698"><ele>1856.9316</ele><time>2026-07-13T20:43:33.000Z</time></trkpt>
        <trkpt lat="27.803395" lon="104.351774"><ele>1856.4525</ele><time>2026-07-13T20:43:34.000Z</time></trkpt>
        <trkpt lat="27.80341" lon="104.351848"><ele>1855.9463</ele><time>2026-07-13T20:43:35.000Z</time></trkpt>
        <trkpt lat="27.803426" lon="104.351921"><ele>1855.5253</ele><time>2026-07-13T20:43:36.000Z</time></trkpt>
        <trkpt lat="27.803445" lon="104.351995"><ele>1855.1145</ele><time>2026-07-13T20:43:37.000Z</time></trkpt>
        <trkpt lat="27.803469" lon="104.352066"><ele>1854.8497</ele><time>2026-07-13T20:43:38.000Z</time></trkpt>
        <trkpt lat="27.803497" lon="104.352136"><ele>1854.7104</ele><time>2026-07-13T20:43:39.000Z</time></trkpt>
        <trkpt lat="27.80353" lon="104.352203"><ele>1854.575</ele><time>2026-07-13T20:43:40.000Z</time></trkpt>
        <trkpt lat="27.803567" lon="104.352268"><ele>1854.4368</ele><time>2026-07-13T20:43:41.000Z</time></trkpt>
        <trkpt lat="27.803604" lon="104.352332"><ele>1854.2137</ele><time>2026-07-13T20:43:42.000Z</time></trkpt>
        <trkpt lat="27.803644" lon="104.352395"><ele>1854.1038</ele><time>2026-07-13T20:43:43.000Z</time></trkpt>
        <trkpt lat="27.803683" lon="104.35246"><ele>1853.9956</ele><time>2026-07-13T20:43:44.000Z</time></trkpt>
        <trkpt lat="27.803719" lon="104.352527"><ele>1853.9121</ele><time>2026-07-13T20:43:45.000Z</time></trkpt>
        <trkpt lat="27.80375" lon="104.352595"><ele>1853.871</ele><time>2026-07-13T20:43:46.000Z</time></trkpt>
        <trkpt lat="27.803773" lon="104.352663"><ele>1853.9517</ele><time>2026-07-13T20:43:47.000Z</time></trkpt>
        <trkpt lat="27.803784" lon="104.35273"><ele>1853.9747</ele><time>2026-07-13T20:43:48.000Z</time></trkpt>
        <trkpt lat="27.80379" lon="104.352799"><ele>1854.1011</ele><time>2026-07-13T20:43:49.000Z</time></trkpt>
        <trkpt lat="27.803789" lon="104.352867"><ele>1854.1239</ele><time>2026-07-13T20:43:50.000Z</time></trkpt>
        <trkpt lat="27.803788" lon="104.352937"><ele>1854.143</ele><time>2026-07-13T20:43:51.000Z</time></trkpt>
        <trkpt lat="27.803789" lon="104.353005"><ele>1854.19</ele><time>2026-07-13T20:43:52.000Z</time></trkpt>
        <trkpt lat="27.803792" lon="104.353073"><ele>1854.1825</ele><time>2026-07-13T20:43:53.000Z</time></trkpt>
        <trkpt lat="27.8038" lon="104.353141"><ele>1854.0637</ele><time>2026-07-13T20:43:54.000Z</time></trkpt>
        <trkpt lat="27.803811" lon="104.353211"><ele>1854.0026</ele><time>2026-07-13T20:43:55.000Z</time></trkpt>
        <trkpt lat="27.803826" lon="104.353281"><ele>1853.8984</ele><time>2026-07-13T20:43:56.000Z</time></trkpt>
        <trkpt lat="27.803843" lon="104.353351"><ele>1853.7565</ele><time>2026-07-13T20:43:57.000Z</time></trkpt>
        <trkpt lat="27.803863" lon="104.353421"><ele>1853.542</ele><time>2026-07-13T20:43:58.000Z</time></trkpt>
        <trkpt lat="27.803889" lon="104.35349"><ele>1853.5063</ele><time>2026-07-13T20:43:59.000Z</time></trkpt>
        <trkpt lat="27.803913" lon="104.353557"><ele>1853.3708</ele><time>2026-07-13T20:44:00.000Z</time></trkpt>
        <trkpt lat="27.803934" lon="104.353616"><ele>1853.3148</ele><time>2026-07-13T20:44:01.000Z</time></trkpt>
        <trkpt lat="27.803953" lon="104.353665"><ele>1853.2881</ele><time>2026-07-13T20:44:02.000Z</time></trkpt>
        <trkpt lat="27.803974" lon="104.353712"><ele>1853.2183</ele><time>2026-07-13T20:44:03.000Z</time></trkpt>
        <trkpt lat="27.804001" lon="104.353761"><ele>1853.1833</ele><time>2026-07-13T20:44:04.000Z</time></trkpt>
        <trkpt lat="27.80403" lon="104.353811"><ele>1853.0956</ele><time>2026-07-13T20:44:05.000Z</time></trkpt>
        <trkpt lat="27.804062" lon="104.353863"><ele>1853.0707</ele><time>2026-07-13T20:44:06.000Z</time></trkpt>
        <trkpt lat="27.8041" lon="104.353916"><ele>1853.0828</ele><time>2026-07-13T20:44:07.000Z</time></trkpt>
        <trkpt lat="27.804141" lon="104.353968"><ele>1853.1378</ele><time>2026-07-13T20:44:08.000Z</time></trkpt>
        <trkpt lat="27.804186" lon="104.354021"><ele>1853.2245</ele><time>2026-07-13T20:44:09.000Z</time></trkpt>
        <trkpt lat="27.804287" lon="104.354122"><ele>1851.7389</ele><time>2026-07-13T20:44:11.000Z</time></trkpt>
        <trkpt lat="27.804344" lon="104.354166"><ele>1851.7731</ele><time>2026-07-13T20:44:12.000Z</time></trkpt>
        <trkpt lat="27.804407" lon="104.354204"><ele>1851.8147</ele><time>2026-07-13T20:44:13.000Z</time></trkpt>
        <trkpt lat="27.804474" lon="104.354239"><ele>1851.8435</ele><time>2026-07-13T20:44:14.000Z</time></trkpt>
        <trkpt lat="27.804545" lon="104.354269"><ele>1851.8593</ele><time>2026-07-13T20:44:15.000Z</time></trkpt>
        <trkpt lat="27.804614" lon="104.354306"><ele>1851.9232</ele><time>2026-07-13T20:44:16.000Z</time></trkpt>
        <trkpt lat="27.804682" lon="104.354343"><ele>1852.1904</ele><time>2026-07-13T20:44:17.000Z</time></trkpt>
        <trkpt lat="27.804757" lon="104.354373"><ele>1852.3053</ele><time>2026-07-13T20:44:18.000Z</time></trkpt>
        <trkpt lat="27.804828" lon="104.3544"><ele>1852.2401</ele><time>2026-07-13T20:44:19.000Z</time></trkpt>
        <trkpt lat="27.804898" lon="104.354426"><ele>1852.4747</ele><time>2026-07-13T20:44:20.000Z</time></trkpt>
        <trkpt lat="27.804968" lon="104.354451"><ele>1852.6494</ele><time>2026-07-13T20:44:21.000Z</time></trkpt>
        <trkpt lat="27.805037" lon="104.354479"><ele>1853.144</ele><time>2026-07-13T20:44:22.000Z</time></trkpt>
        <trkpt lat="27.805107" lon="104.354512"><ele>1853.2921</ele><time>2026-07-13T20:44:23.000Z</time></trkpt>
        <trkpt lat="27.805178" lon="104.354543"><ele>1853.7153</ele><time>2026-07-13T20:44:24.000Z</time></trkpt>
        <trkpt lat="27.805249" lon="104.354577"><ele>1854.0315</ele><time>2026-07-13T20:44:25.000Z</time></trkpt>
        <trkpt lat="27.805319" lon="104.354617"><ele>1854.3477</ele><time>2026-07-13T20:44:26.000Z</time></trkpt>
        <trkpt lat="27.805385" lon="104.354666"><ele>1854.8357</ele><time>2026-07-13T20:44:27.000Z</time></trkpt>
        <trkpt lat="27.805446" lon="104.354726"><ele>1855.3406</ele><time>2026-07-13T20:44:28.000Z</time></trkpt>
        <trkpt lat="27.805504" lon="104.354786"><ele>1856.1804</ele><time>2026-07-13T20:44:29.000Z</time></trkpt>
        <trkpt lat="27.805567" lon="104.354847"><ele>1856.7325</ele><time>2026-07-13T20:44:30.000Z</time></trkpt>
        <trkpt lat="27.805621" lon="104.354908"><ele>1856.4023</ele><time>2026-07-13T20:44:31.000Z</time></trkpt>
        <trkpt lat="27.805678" lon="104.354971"><ele>1856.6067</ele><time>2026-07-13T20:44:32.000Z</time></trkpt>
        <trkpt lat="27.805731" lon="104.355031"><ele>1857.0265</ele><time>2026-07-13T20:44:33.000Z</time></trkpt>
        <trkpt lat="27.805782" lon="104.355087"><ele>1857.5587</ele><time>2026-07-13T20:44:34.000Z</time></trkpt>
        <trkpt lat="27.805833" lon="104.355134"><ele>1858.5677</ele><time>2026-07-13T20:44:35.000Z</time></trkpt>
        <trkpt lat="27.805887" lon="104.355173"><ele>1859.31</ele><time>2026-07-13T20:44:36.000Z</time></trkpt>
        <trkpt lat="27.805941" lon="104.355196"><ele>1859.1078</ele><time>2026-07-13T20:44:37.000Z</time></trkpt>
        <trkpt lat="27.806001" lon="104.355195"><ele>1858.9327</ele><time>2026-07-13T20:44:38.000Z</time></trkpt>
        <trkpt lat="27.806057" lon="104.355184"><ele>1858.2898</ele><time>2026-07-13T20:44:39.000Z</time></trkpt>
        <trkpt lat="27.806124" lon="104.355168"><ele>1858.2589</ele><time>2026-07-13T20:44:40.000Z</time></trkpt>
        <trkpt lat="27.806187" lon="104.355143"><ele>1858.4287</ele><time>2026-07-13T20:44:41.000Z</time></trkpt>
        <trkpt lat="27.806249" lon="104.355123"><ele>1858.7573</ele><time>2026-07-13T20:44:42.000Z</time></trkpt>
        <trkpt lat="27.806306" lon="104.355113"><ele>1858.9972</ele><time>2026-07-13T20:44:43.000Z</time></trkpt>
        <trkpt lat="27.806363" lon="104.355116"><ele>1858.7915</ele><time>2026-07-13T20:44:44.000Z</time></trkpt>
        <trkpt lat="27.806421" lon="104.355131"><ele>1858.884</ele><time>2026-07-13T20:44:45.000Z</time></trkpt>
        <trkpt lat="27.806481" lon="104.355164"><ele>1858.769</ele><time>2026-07-13T20:44:46.000Z</time></trkpt>
        <trkpt lat="27.806532" lon="104.355215"><ele>1858.4166</ele><time>2026-07-13T20:44:47.000Z</time></trkpt>
        <trkpt lat="27.806574" lon="104.355274"><ele>1858.0673</ele><time>2026-07-13T20:44:48.000Z</time></trkpt>
        <trkpt lat="27.806615" lon="104.355328"><ele>1858.4412</ele><time>2026-07-13T20:44:49.000Z</time></trkpt>
        <trkpt lat="27.806678" lon="104.355352"><ele>1858.4094</ele><time>2026-07-13T20:44:50.000Z</time></trkpt>
        <trkpt lat="27.806705" lon="104.355403"><ele>1858.1583</ele><time>2026-07-13T20:44:51.000Z</time></trkpt>
        <trkpt lat="27.80673" lon="104.355451"><ele>1858.6311</ele><time>2026-07-13T20:44:52.000Z</time></trkpt>
        <trkpt lat="27.806754" lon="104.355498"><ele>1858.9269</ele><time>2026-07-13T20:44:53.000Z</time></trkpt>
        <trkpt lat="27.806782" lon="104.35554"><ele>1859.3646</ele><time>2026-07-13T20:44:54.000Z</time></trkpt>
        <trkpt lat="27.80683" lon="104.355604"><ele>1861.0112</ele><time>2026-07-13T20:44:56.000Z</time></trkpt>
        <trkpt lat="27.806877" lon="104.355644"><ele>1862.2456</ele><time>2026-07-13T20:44:58.000Z</time></trkpt>
        <trkpt lat="27.806907" lon="104.355685"><ele>1862.4185</ele><time>2026-07-13T20:45:00.000Z</time></trkpt>
        <trkpt lat="27.806964" lon="104.355628"><ele>1862.0514</ele><time>2026-07-13T20:45:01.000Z</time></trkpt>
        <trkpt lat="27.807025" lon="104.35567"><ele>1863.6991</ele><time>2026-07-13T20:45:04.000Z</time></trkpt>
        <trkpt lat="27.807068" lon="104.355702"><ele>1864.1732</ele><time>2026-07-13T20:45:06.000Z</time></trkpt>
        <trkpt lat="27.807103" lon="104.355737"><ele>1864.6382</ele><time>2026-07-13T20:45:21.000Z</time></trkpt>
        <trkpt lat="27.807166" lon="104.355782"><ele>1864.8768</ele><time>2026-07-13T20:45:23.000Z</time></trkpt>
        <trkpt lat="27.807225" lon="104.355826"><ele>1865.391</ele><time>2026-07-13T20:45:25.000Z</time></trkpt>
        <trkpt lat="27.807287" lon="104.355862"><ele>1865.8894</ele><time>2026-07-13T20:45:27.000Z</time></trkpt>
        <trkpt lat="27.807353" lon="104.355888"><ele>1866.227</ele><time>2026-07-13T20:45:29.000Z</time></trkpt>
        <trkpt lat="27.807421" lon="104.3559"><ele>1866.57</ele><time>2026-07-13T20:45:31.000Z</time></trkpt>
        <trkpt lat="27.807492" lon="104.355895"><ele>1866.8374</ele><time>2026-07-13T20:45:33.000Z</time></trkpt>
        <trkpt lat="27.807571" lon="104.355885"><ele>1867.3145</ele><time>2026-07-13T20:45:35.000Z</time></trkpt>
        <trkpt lat="27.80764" lon="104.355876"><ele>1867.6044</ele><time>2026-07-13T20:45:37.000Z</time></trkpt>
        <trkpt lat="27.807705" lon="104.355864"><ele>1867.6675</ele><time>2026-07-13T20:45:39.000Z</time></trkpt>
        <trkpt lat="27.807779" lon="104.355859"><ele>1867.5425</ele><time>2026-07-13T20:45:41.000Z</time></trkpt>
        <trkpt lat="27.807854" lon="104.355857"><ele>1867.6335</ele><time>2026-07-13T20:45:43.000Z</time></trkpt>
        <trkpt lat="27.807926" lon="104.35586"><ele>1867.7764</ele><time>2026-07-13T20:45:45.000Z</time></trkpt>
        <trkpt lat="27.807997" lon="104.355865"><ele>1867.8495</ele><time>2026-07-13T20:45:47.000Z</time></trkpt>
        <trkpt lat="27.808064" lon="104.355871"><ele>1867.7705</ele><time>2026-07-13T20:45:49.000Z</time></trkpt>
        <trkpt lat="27.808125" lon="104.355872"><ele>1867.5759</ele><time>2026-07-13T20:45:51.000Z</time></trkpt>
        <trkpt lat="27.808186" lon="104.355882"><ele>1867.3992</ele><time>2026-07-13T20:45:53.000Z</time></trkpt>
        <trkpt lat="27.808242" lon="104.355913"><ele>1867.4414</ele><time>2026-07-13T20:45:55.000Z</time></trkpt>
        <trkpt lat="27.808284" lon="104.35596"><ele>1867.5266</ele><time>2026-07-13T20:45:57.000Z</time></trkpt>
        <trkpt lat="27.808314" lon="104.356018"><ele>1867.5164</ele><time>2026-07-13T20:45:59.000Z</time></trkpt>
        <trkpt lat="27.808319" lon="104.35609"><ele>1867.7039</ele><time>2026-07-13T20:46:01.000Z</time></trkpt>
        <trkpt lat="27.808315" lon="104.356166"><ele>1867.7079</ele><time>2026-07-13T20:46:03.000Z</time></trkpt>
        <trkpt lat="27.80833" lon="104.356245"><ele>1867.7705</ele><time>2026-07-13T20:46:05.000Z</time></trkpt>
        <trkpt lat="27.808375" lon="104.356298"><ele>1867.8619</ele><time>2026-07-13T20:46:07.000Z</time></trkpt>
        <trkpt lat="27.808432" lon="104.356332"><ele>1867.8118</ele><time>2026-07-13T20:46:09.000Z</time></trkpt>
        <trkpt lat="27.808499" lon="104.356348"><ele>1867.6626</ele><time>2026-07-13T20:46:11.000Z</time></trkpt>
        <trkpt lat="27.808569" lon="104.356366"><ele>1867.4062</ele><time>2026-07-13T20:46:13.000Z</time></trkpt>
        <trkpt lat="27.808634" lon="104.356393"><ele>1867.343</ele><time>2026-07-13T20:46:15.000Z</time></trkpt>
        <trkpt lat="27.808699" lon="104.356405"><ele>1867.1843</ele><time>2026-07-13T20:46:17.000Z</time></trkpt>
        <trkpt lat="27.808757" lon="104.356427"><ele>1866.8428</ele><time>2026-07-13T20:46:19.000Z</time></trkpt>
        <trkpt lat="27.808817" lon="104.356447"><ele>1866.7225</ele><time>2026-07-13T20:46:22.000Z</time></trkpt>
        <trkpt lat="27.808861" lon="104.356459"><ele>1866.562</ele><time>2026-07-13T20:46:26.000Z</time></trkpt>
        <trkpt lat="27.80891" lon="104.356451"><ele>1864.966</ele><time>2026-07-13T20:46:37.000Z</time></trkpt>
        <trkpt lat="27.808956" lon="104.356451"><ele>1864.2645</ele><time>2026-07-13T20:46:42.000Z</time></trkpt>
        <trkpt lat="27.808999" lon="104.356438"><ele>1863.5923</ele><time>2026-07-13T20:46:46.000Z</time></trkpt>
        <trkpt lat="27.809041" lon="104.356415"><ele>1862.3489</ele><time>2026-07-13T20:46:51.000Z</time></trkpt>
        <trkpt lat="27.809081" lon="104.356381"><ele>1861.9398</ele><time>2026-07-13T20:46:56.000Z</time></trkpt>
        <trkpt lat="27.80913" lon="104.356365"><ele>1861.8273</ele><time>2026-07-13T20:47:02.000Z</time></trkpt>
        <trkpt lat="27.809155" lon="104.356312"><ele>1861.4822</ele><time>2026-07-13T20:47:09.000Z</time></trkpt>
        <trkpt lat="27.809189" lon="104.356277"><ele>1861.16</ele><time>2026-07-13T20:47:14.000Z</time></trkpt>
        <trkpt lat="27.80922" lon="104.35624"><ele>1860.5034</ele><time>2026-07-13T20:47:22.000Z</time></trkpt>
        <trkpt lat="27.809194" lon="104.356282"><ele>1859.8898</ele><time>2026-07-13T20:47:43.000Z</time></trkpt>
        <trkpt lat="27.809159" lon="104.35632"><ele>1859.7507</ele><time>2026-07-13T20:47:47.000Z</time></trkpt>
        <trkpt lat="27.809185" lon="104.356268"><ele>1858.8608</ele><time>2026-07-13T20:47:52.000Z</time></trkpt>
        <trkpt lat="27.809223" lon="104.356239"><ele>1859.2588</ele><time>2026-07-13T20:48:19.000Z</time></trkpt>
        <trkpt lat="27.809268" lon="104.356224"><ele>1858.3844</ele><time>2026-07-13T20:50:28.000Z</time></trkpt>
        <trkpt lat="27.809315" lon="104.356226"><ele>1858.892</ele><time>2026-07-13T20:50:40.000Z</time></trkpt>
        <trkpt lat="27.809259" lon="104.356226"><ele>1859.4214</ele><time>2026-07-13T20:51:13.000Z</time></trkpt>
        <trkpt lat="27.80923" lon="104.356266"><ele>1858.6703</ele><time>2026-07-13T20:53:05.000Z</time></trkpt>
        <trkpt lat="27.809191" lon="104.356302"><ele>1858.4022</ele><time>2026-07-13T20:53:11.000Z</time></trkpt>
        <trkpt lat="27.809154" lon="104.356335"><ele>1857.8448</ele><time>2026-07-13T20:53:16.000Z</time></trkpt>
        <trkpt lat="27.80919" lon="104.35627"><ele>1857.9297</ele><time>2026-07-13T20:53:46.000Z</time></trkpt>
        <trkpt lat="27.809224" lon="104.356232"><ele>1857.9781</ele><time>2026-07-13T20:53:48.000Z</time></trkpt>
        <trkpt lat="27.809281" lon="104.356204"><ele>1857.6179</ele><time>2026-07-13T20:53:51.000Z</time></trkpt>
        <trkpt lat="27.809322" lon="104.356237"><ele>1857.837</ele><time>2026-07-13T20:53:53.000Z</time></trkpt>
        <trkpt lat="27.809345" lon="104.356298"><ele>1858.0593</ele><time>2026-07-13T20:53:55.000Z</time></trkpt>
        <trkpt lat="27.809355" lon="104.356379"><ele>1858.0676</ele><time>2026-07-13T20:53:57.000Z</time></trkpt>
        <trkpt lat="27.809363" lon="104.356454"><ele>1858.0215</ele><time>2026-07-13T20:53:59.000Z</time></trkpt>
        <trkpt lat="27.809373" lon="104.356517"><ele>1857.9467</ele><time>2026-07-13T20:54:01.000Z</time></trkpt>
        <trkpt lat="27.809383" lon="104.356584"><ele>1857.8793</ele><time>2026-07-13T20:54:03.000Z</time></trkpt>
        <trkpt lat="27.809398" lon="104.356658"><ele>1857.8131</ele><time>2026-07-13T20:54:05.000Z</time></trkpt>
        <trkpt lat="27.809404" lon="104.356725"><ele>1857.72</ele><time>2026-07-13T20:54:07.000Z</time></trkpt>
        <trkpt lat="27.80941" lon="104.356791"><ele>1857.6233</ele><time>2026-07-13T20:54:09.000Z</time></trkpt>
        <trkpt lat="27.809431" lon="104.356857"><ele>1857.5386</ele><time>2026-07-13T20:54:11.000Z</time></trkpt>
        <trkpt lat="27.80947" lon="104.356906"><ele>1857.506</ele><time>2026-07-13T20:54:13.000Z</time></trkpt>
        <trkpt lat="27.809544" lon="104.356947"><ele>1857.6022</ele><time>2026-07-13T20:54:15.000Z</time></trkpt>
        <trkpt lat="27.809619" lon="104.356966"><ele>1857.6257</ele><time>2026-07-13T20:54:17.000Z</time></trkpt>
        <trkpt lat="27.809689" lon="104.356988"><ele>1857.9111</ele><time>2026-07-13T20:54:19.000Z</time></trkpt>
        <trkpt lat="27.809755" lon="104.357001"><ele>1858.2616</ele><time>2026-07-13T20:54:21.000Z</time></trkpt>
        <trkpt lat="27.809826" lon="104.357011"><ele>1858.2334</ele><time>2026-07-13T20:54:23.000Z</time></trkpt>
        <trkpt lat="27.809896" lon="104.357021"><ele>1858.2029</ele><time>2026-07-13T20:54:25.000Z</time></trkpt>
        <trkpt lat="27.809959" lon="104.357035"><ele>1858.1101</ele><time>2026-07-13T20:54:27.000Z</time></trkpt>
        <trkpt lat="27.810018" lon="104.357054"><ele>1858.072</ele><time>2026-07-13T20:54:29.000Z</time></trkpt>
        <trkpt lat="27.810088" lon="104.357076"><ele>1857.9978</ele><time>2026-07-13T20:54:31.000Z</time></trkpt>
        <trkpt lat="27.810159" lon="104.357099"><ele>1857.6787</ele><time>2026-07-13T20:54:33.000Z</time></trkpt>
        <trkpt lat="27.810227" lon="104.357118"><ele>1857.4384</ele><time>2026-07-13T20:54:35.000Z</time></trkpt>
        <trkpt lat="27.810299" lon="104.357133"><ele>1857.4401</ele><time>2026-07-13T20:54:37.000Z</time></trkpt>
        <trkpt lat="27.810362" lon="104.357143"><ele>1857.2291</ele><time>2026-07-13T20:54:39.000Z</time></trkpt>
        <trkpt lat="27.81041" lon="104.357153"><ele>1857.187</ele><time>2026-07-13T20:54:41.000Z</time></trkpt>
        <trkpt lat="27.810461" lon="104.357171"><ele>1857.0199</ele><time>2026-07-13T20:54:43.000Z</time></trkpt>
        <trkpt lat="27.810508" lon="104.357194"><ele>1856.6104</ele><time>2026-07-13T20:54:45.000Z</time></trkpt>
        <trkpt lat="27.810555" lon="104.357216"><ele>1856.1686</ele><time>2026-07-13T20:54:47.000Z</time></trkpt>
        <trkpt lat="27.810607" lon="104.357236"><ele>1855.7861</ele><time>2026-07-13T20:54:49.000Z</time></trkpt>
        <trkpt lat="27.810661" lon="104.357271"><ele>1855.5396</ele><time>2026-07-13T20:54:51.000Z</time></trkpt>
        <trkpt lat="27.810704" lon="104.357328"><ele>1855.3774</ele><time>2026-07-13T20:54:53.000Z</time></trkpt>
        <trkpt lat="27.810743" lon="104.357378"><ele>1855.0708</ele><time>2026-07-13T20:54:55.000Z</time></trkpt>
        <trkpt lat="27.810797" lon="104.357416"><ele>1854.6243</ele><time>2026-07-13T20:54:57.000Z</time></trkpt>
        <trkpt lat="27.81085" lon="104.357437"><ele>1854.164</ele><time>2026-07-13T20:54:59.000Z</time></trkpt>
        <trkpt lat="27.810907" lon="104.357453"><ele>1853.7042</ele><time>2026-07-13T20:55:01.000Z</time></trkpt>
        <trkpt lat="27.810956" lon="104.357484"><ele>1853.3262</ele><time>2026-07-13T20:55:03.000Z</time></trkpt>
        <trkpt lat="27.811009" lon="104.357532"><ele>1852.7997</ele><time>2026-07-13T20:55:05.000Z</time></trkpt>
        <trkpt lat="27.811044" lon="104.357583"><ele>1852.3772</ele><time>2026-07-13T20:55:07.000Z</time></trkpt>
        <trkpt lat="27.811069" lon="104.357646"><ele>1851.8726</ele><time>2026-07-13T20:55:09.000Z</time></trkpt>
        <trkpt lat="27.811092" lon="104.357719"><ele>1851.2279</ele><time>2026-07-13T20:55:11.000Z</time></trkpt>
        <trkpt lat="27.811111" lon="104.357786"><ele>1850.711</ele><time>2026-07-13T20:55:13.000Z</time></trkpt>
        <trkpt lat="27.81113" lon="104.357839"><ele>1850.0262</ele><time>2026-07-13T20:55:16.000Z</time></trkpt>
        <trkpt lat="27.811124" lon="104.357788"><ele>1847.8839</ele><time>2026-07-13T20:55:28.000Z</time></trkpt>
        <trkpt lat="27.811106" lon="104.35774"><ele>1847.1661</ele><time>2026-07-13T20:55:34.000Z</time></trkpt>
        <trkpt lat="27.811088" lon="104.35769"><ele>1847.1849</ele><time>2026-07-13T20:55:48.000Z</time></trkpt>
        <trkpt lat="27.811073" lon="104.357641"><ele>1847.5364</ele><time>2026-07-13T20:55:54.000Z</time></trkpt>
        <trkpt lat="27.81112" lon="104.357635"><ele>1847.0764</ele><time>2026-07-13T20:56:33.000Z</time></trkpt>
        <trkpt lat="27.811155" lon="104.3576"><ele>1847.1498</ele><time>2026-07-13T20:56:55.000Z</time></trkpt>
        <trkpt lat="27.811199" lon="104.3576"><ele>1845.3428</ele><time>2026-07-13T20:57:13.000Z</time></trkpt>
        <trkpt lat="27.811246" lon="104.35759"><ele>1843.2502</ele><time>2026-07-13T20:57:38.000Z</time></trkpt>
        <trkpt lat="27.811295" lon="104.357605"><ele>1843.1111</ele><time>2026-07-13T20:57:46.000Z</time></trkpt>
        <trkpt lat="27.811251" lon="104.357596"><ele>1843.9883</ele><time>2026-07-13T20:58:51.000Z</time></trkpt>
        <trkpt lat="27.811231" lon="104.357642"><ele>1842.9543</ele><time>2026-07-13T21:13:20.000Z</time></trkpt>
        <trkpt lat="27.811188" lon="104.357661"><ele>1843.2931</ele><time>2026-07-13T21:13:32.000Z</time></trkpt>
        <trkpt lat="27.811145" lon="104.357639"><ele>1844.1963</ele><time>2026-07-13T21:13:41.000Z</time></trkpt>
        <trkpt lat="27.811107" lon="104.357612"><ele>1844.7032</ele><time>2026-07-13T21:13:50.000Z</time></trkpt>
        <trkpt lat="27.811069" lon="104.357637"><ele>1845.7876</ele><time>2026-07-13T21:14:02.000Z</time></trkpt>
      </trkseg>
  </trk>
</gpx>